<?xml version="1.0" encoding="UTF-8" standalone="no" ?>
<gpx xmlns="http://www.topografix.com/GPX/1/1" xmlns:xsi="http://www.w3.org/2001/XMLSchema-instance" xsi:schemaLocation="http://www.topografix.com/GPX/1/1 http://www.topografix.com/GPX/1/1/gpx.xsd" version="1.1" creator="VisuGPX - https://www.visugpx.com">
  <metadata>
    <name>vtt-Les_terrils_46km</name>
  </metadata>
  <trk>
    <name><![CDATA[vtt-Les_terrils_46km]]></name>
    <extensions>
      <line xmlns="http://www.topografix.com/GPX/gpx_style/0/2">
        <color>0000FF</color>
        <width>4</width>
      </line>
    </extensions>
    <trkseg>
      <trkpt lat="50.4432" lon="2.57386">
        <ele>155.715047</ele>
        <time>2022-06-05T09:31:28.796Z</time>
      </trkpt>
      <trkpt lat="50.44292" lon="2.57356">
        <ele>155.715047</ele>
        <time>2022-06-05T09:31:41.897Z</time>
      </trkpt>
      <trkpt lat="50.44284" lon="2.57365">
        <ele>155.715047</ele>
        <time>2022-06-05T09:31:45.944Z</time>
      </trkpt>
      <trkpt lat="50.44238" lon="2.57284">
        <ele>154.770699</ele>
        <time>2022-06-05T09:32:06.608Z</time>
      </trkpt>
      <trkpt lat="50.44225" lon="2.57279">
        <ele>154.219289</ele>
        <time>2022-06-05T09:32:10.572Z</time>
      </trkpt>
      <trkpt lat="50.44165" lon="2.57218">
        <ele>151.281902</ele>
        <time>2022-06-05T09:32:28.997Z</time>
      </trkpt>
      <trkpt lat="50.44137" lon="2.57187">
        <ele>149.865657</ele>
        <time>2022-06-05T09:32:37.550Z</time>
      </trkpt>
      <trkpt lat="50.44125" lon="2.57169">
        <ele>149.178545</ele>
        <time>2022-06-05T09:32:41.229Z</time>
      </trkpt>
      <trkpt lat="50.44118" lon="2.57172">
        <ele>148.875977</ele>
        <time>2022-06-05T09:32:42.974Z</time>
      </trkpt>
      <trkpt lat="50.44069" lon="2.57147">
        <ele>144.326385</ele>
        <time>2022-06-05T09:32:54.115Z</time>
      </trkpt>
      <trkpt lat="50.44015" lon="2.57168">
        <ele>138.316648</ele>
        <time>2022-06-05T09:33:05.767Z</time>
      </trkpt>
      <trkpt lat="50.43994" lon="2.57165">
        <ele>136.077679</ele>
        <time>2022-06-05T09:33:10.118Z</time>
      </trkpt>
      <trkpt lat="50.43962" lon="2.57146">
        <ele>132.413939</ele>
        <time>2022-06-05T09:33:17.275Z</time>
      </trkpt>
      <trkpt lat="50.43911" lon="2.57117">
        <ele>126.931541</ele>
        <time>2022-06-05T09:33:28.874Z</time>
      </trkpt>
      <trkpt lat="50.43906" lon="2.5709">
        <ele>125.254704</ele>
        <time>2022-06-05T09:33:32.755Z</time>
      </trkpt>
      <trkpt lat="50.43839" lon="2.56899">
        <ele>112.478582</ele>
        <time>2022-06-05T09:34:03.001Z</time>
      </trkpt>
      <trkpt lat="50.438" lon="2.56826">
        <ele>108.770988</ele>
        <time>2022-06-05T09:34:17.304Z</time>
      </trkpt>
      <trkpt lat="50.43775" lon="2.56746">
        <ele>105.292371</ele>
        <time>2022-06-05T09:34:30.730Z</time>
      </trkpt>
      <trkpt lat="50.43721" lon="2.56665">
        <ele>100.789527</ele>
        <time>2022-06-05T09:34:48.258Z</time>
      </trkpt>
      <trkpt lat="50.43698" lon="2.5662">
        <ele>98.608488</ele>
        <time>2022-06-05T09:34:56.947Z</time>
      </trkpt>
      <trkpt lat="50.43569" lon="2.56445">
        <ele>89.464174</ele>
        <time>2022-06-05T09:35:36.743Z</time>
      </trkpt>
      <trkpt lat="50.43526" lon="2.56366">
        <ele>87.043057</ele>
        <time>2022-06-05T09:35:53.051Z</time>
      </trkpt>
      <trkpt lat="50.43652" lon="2.56119">
        <ele>83.194898</ele>
        <time>2022-06-05T09:36:49.694Z</time>
      </trkpt>
      <trkpt lat="50.43689" lon="2.56061">
        <ele>82.721083</ele>
        <time>2022-06-05T09:37:08.314Z</time>
      </trkpt>
      <trkpt lat="50.43723" lon="2.56025">
        <ele>82.60457</ele>
        <time>2022-06-05T09:37:22.340Z</time>
      </trkpt>
      <trkpt lat="50.43734" lon="2.56014">
        <ele>82.568109</ele>
        <time>2022-06-05T09:37:25.002Z</time>
      </trkpt>
      <trkpt lat="50.43755" lon="2.55997">
        <ele>82.501608</ele>
        <time>2022-06-05T09:37:31.240Z</time>
      </trkpt>
      <trkpt lat="50.43762" lon="2.55991">
        <ele>82.479803</ele>
        <time>2022-06-05T09:37:33.238Z</time>
      </trkpt>
      <trkpt lat="50.43779" lon="2.55976">
        <ele>82.423075</ele>
        <time>2022-06-05T09:37:38.494Z</time>
      </trkpt>
      <trkpt lat="50.43903" lon="2.55833">
        <ele>80.583179</ele>
        <time>2022-06-05T09:38:05.716Z</time>
      </trkpt>
      <trkpt lat="50.43953" lon="2.55788">
        <ele>79.40319</ele>
        <time>2022-06-05T09:38:14.673Z</time>
      </trkpt>
      <trkpt lat="50.43985" lon="2.55754">
        <ele>78.621034</ele>
        <time>2022-06-05T09:38:20.578Z</time>
      </trkpt>
      <trkpt lat="50.44105" lon="2.55606">
        <ele>75.104529</ele>
        <time>2022-06-05T09:38:44.767Z</time>
      </trkpt>
      <trkpt lat="50.44143" lon="2.55559">
        <ele>74.267914</ele>
        <time>2022-06-05T09:38:53.195Z</time>
      </trkpt>
      <trkpt lat="50.44155" lon="2.55543">
        <ele>74.174187</ele>
        <time>2022-06-05T09:38:55.898Z</time>
      </trkpt>
      <trkpt lat="50.44166" lon="2.5553">
        <ele>74.086271</ele>
        <time>2022-06-05T09:38:58.737Z</time>
      </trkpt>
      <trkpt lat="50.44168" lon="2.55529">
        <ele>74.074356</ele>
        <time>2022-06-05T09:38:59.072Z</time>
      </trkpt>
      <trkpt lat="50.44173" lon="2.55521">
        <ele>74.027931</ele>
        <time>2022-06-05T09:39:00.378Z</time>
      </trkpt>
      <trkpt lat="50.44173" lon="2.55517">
        <ele>74.013344</ele>
        <time>2022-06-05T09:39:00.816Z</time>
      </trkpt>
      <trkpt lat="50.44168" lon="2.55507">
        <ele>73.962573</ele>
        <time>2022-06-05T09:39:02.261Z</time>
      </trkpt>
      <trkpt lat="50.4416" lon="2.55512">
        <ele>73.907806</ele>
        <time>2022-06-05T09:39:03.806Z</time>
      </trkpt>
      <trkpt lat="50.44146" lon="2.55513">
        <ele>73.821605</ele>
        <time>2022-06-05T09:39:06.845Z</time>
      </trkpt>
      <trkpt lat="50.44089" lon="2.55478">
        <ele>73.442494</ele>
        <time>2022-06-05T09:39:19.169Z</time>
      </trkpt>
      <trkpt lat="50.44002" lon="2.55425">
        <ele>71.986501</ele>
        <time>2022-06-05T09:39:34.522Z</time>
      </trkpt>
      <trkpt lat="50.43996" lon="2.55397">
        <ele>71.611248</ele>
        <time>2022-06-05T09:39:37.795Z</time>
      </trkpt>
      <trkpt lat="50.43978" lon="2.55355">
        <ele>70.967328</ele>
        <time>2022-06-05T09:39:43.101Z</time>
      </trkpt>
      <trkpt lat="50.4396" lon="2.553">
        <ele>70.184542</ele>
        <time>2022-06-05T09:39:49.222Z</time>
      </trkpt>
      <trkpt lat="50.43947" lon="2.55238">
        <ele>69.357458</ele>
        <time>2022-06-05T09:39:55.591Z</time>
      </trkpt>
      <trkpt lat="50.43944" lon="2.55217">
        <ele>69.087334</ele>
        <time>2022-06-05T09:39:57.671Z</time>
      </trkpt>
      <trkpt lat="50.43949" lon="2.55195">
        <ele>68.786184</ele>
        <time>2022-06-05T09:40:00.041Z</time>
      </trkpt>
      <trkpt lat="50.43988" lon="2.55155">
        <ele>67.870461</ele>
        <time>2022-06-05T09:40:07.076Z</time>
      </trkpt>
      <trkpt lat="50.44" lon="2.55147">
        <ele>67.610384</ele>
        <time>2022-06-05T09:40:09.148Z</time>
      </trkpt>
      <trkpt lat="50.44014" lon="2.55125">
        <ele>67.213302</ele>
        <time>2022-06-05T09:40:12.409Z</time>
      </trkpt>
      <trkpt lat="50.4402" lon="2.55074">
        <ele>66.552953</ele>
        <time>2022-06-05T09:40:18.375Z</time>
      </trkpt>
      <trkpt lat="50.43991" lon="2.54945">
        <ele>66.625837</ele>
        <time>2022-06-05T09:40:37.334Z</time>
      </trkpt>
      <trkpt lat="50.43992" lon="2.54929">
        <ele>66.711778</ele>
        <time>2022-06-05T09:40:39.978Z</time>
      </trkpt>
      <trkpt lat="50.44018" lon="2.54867">
        <ele>67.104945</ele>
        <time>2022-06-05T09:40:51.646Z</time>
      </trkpt>
      <trkpt lat="50.44037" lon="2.548">
        <ele>67.487591</ele>
        <time>2022-06-05T09:41:03.772Z</time>
      </trkpt>
      <trkpt lat="50.44058" lon="2.54714">
        <ele>68.180082</ele>
        <time>2022-06-05T09:41:19.609Z</time>
      </trkpt>
      <trkpt lat="50.44069" lon="2.54632">
        <ele>68.857264</ele>
        <time>2022-06-05T09:41:33.291Z</time>
      </trkpt>
      <trkpt lat="50.44071" lon="2.54567">
        <ele>69.379875</ele>
        <time>2022-06-05T09:41:43.593Z</time>
      </trkpt>
      <trkpt lat="50.44064" lon="2.54482">
        <ele>70.027414</ele>
        <time>2022-06-05T09:41:57.158Z</time>
      </trkpt>
      <trkpt lat="50.44048" lon="2.54336">
        <ele>70.980428</ele>
        <time>2022-06-05T09:42:20.012Z</time>
      </trkpt>
      <trkpt lat="50.44036" lon="2.54289">
        <ele>71.308771</ele>
        <time>2022-06-05T09:42:28.544Z</time>
      </trkpt>
      <trkpt lat="50.44037" lon="2.54259">
        <ele>71.499734</ele>
        <time>2022-06-05T09:42:33.063Z</time>
      </trkpt>
      <trkpt lat="50.4405" lon="2.54195">
        <ele>71.731079</ele>
        <time>2022-06-05T09:42:42.873Z</time>
      </trkpt>
      <trkpt lat="50.44051" lon="2.54154">
        <ele>71.787488</ele>
        <time>2022-06-05T09:42:48.044Z</time>
      </trkpt>
      <trkpt lat="50.44031" lon="2.54086">
        <ele>71.891646</ele>
        <time>2022-06-05T09:42:57.872Z</time>
      </trkpt>
      <trkpt lat="50.44075" lon="2.54005">
        <ele>72.040726</ele>
        <time>2022-06-05T09:43:10.675Z</time>
      </trkpt>
      <trkpt lat="50.44153" lon="2.53881">
        <ele>71.925354</ele>
        <time>2022-06-05T09:43:31.348Z</time>
      </trkpt>
      <trkpt lat="50.44156" lon="2.53876">
        <ele>71.919053</ele>
        <time>2022-06-05T09:43:32.121Z</time>
      </trkpt>
      <trkpt lat="50.44271" lon="2.53694">
        <ele>71.608019</ele>
        <time>2022-06-05T09:44:02.957Z</time>
      </trkpt>
      <trkpt lat="50.4434" lon="2.53565">
        <ele>71.398775</ele>
        <time>2022-06-05T09:44:22.528Z</time>
      </trkpt>
      <trkpt lat="50.44354" lon="2.53546">
        <ele>71.410124</ele>
        <time>2022-06-05T09:44:25.888Z</time>
      </trkpt>
      <trkpt lat="50.44379" lon="2.53487">
        <ele>71.437489</ele>
        <time>2022-06-05T09:44:34.297Z</time>
      </trkpt>
      <trkpt lat="50.44454" lon="2.53401">
        <ele>71.493714</ele>
        <time>2022-06-05T09:44:53.557Z</time>
      </trkpt>
      <trkpt lat="50.44558" lon="2.53237">
        <ele>71.27777</ele>
        <time>2022-06-05T09:45:23.773Z</time>
      </trkpt>
      <trkpt lat="50.44566" lon="2.53227">
        <ele>71.261517</ele>
        <time>2022-06-05T09:45:25.518Z</time>
      </trkpt>
      <trkpt lat="50.44662" lon="2.53107">
        <ele>68.778131</ele>
        <time>2022-06-05T09:45:45.510Z</time>
      </trkpt>
      <trkpt lat="50.44744" lon="2.52968">
        <ele>65.064595</ele>
        <time>2022-06-05T09:46:02.184Z</time>
      </trkpt>
      <trkpt lat="50.44753" lon="2.5297">
        <ele>64.695582</ele>
        <time>2022-06-05T09:46:03.372Z</time>
      </trkpt>
      <trkpt lat="50.44755" lon="2.52966">
        <ele>64.565362</ele>
        <time>2022-06-05T09:46:03.801Z</time>
      </trkpt>
      <trkpt lat="50.44754" lon="2.52952">
        <ele>64.193358</ele>
        <time>2022-06-05T09:46:05.021Z</time>
      </trkpt>
      <trkpt lat="50.44819" lon="2.5284">
        <ele>60.177217</ele>
        <time>2022-06-05T09:46:18.971Z</time>
      </trkpt>
      <trkpt lat="50.44829" lon="2.52814">
        <ele>59.352777</ele>
        <time>2022-06-05T09:46:21.886Z</time>
      </trkpt>
      <trkpt lat="50.44915" lon="2.52669">
        <ele>56.605165</ele>
        <time>2022-06-05T09:46:41.303Z</time>
      </trkpt>
      <trkpt lat="50.44948" lon="2.52625">
        <ele>55.742074</ele>
        <time>2022-06-05T09:46:49.286Z</time>
      </trkpt>
      <trkpt lat="50.4503" lon="2.52498">
        <ele>57.220715</ele>
        <time>2022-06-05T09:47:17.355Z</time>
      </trkpt>
      <trkpt lat="50.45046" lon="2.52471">
        <ele>57.70845</ele>
        <time>2022-06-05T09:47:25.069Z</time>
      </trkpt>
      <trkpt lat="50.45062" lon="2.52451">
        <ele>58.133124</ele>
        <time>2022-06-05T09:47:32.338Z</time>
      </trkpt>
      <trkpt lat="50.45117" lon="2.52368">
        <ele>61.015456</ele>
        <time>2022-06-05T09:48:03.328Z</time>
      </trkpt>
      <trkpt lat="50.45142" lon="2.5233">
        <ele>63.07753</ele>
        <time>2022-06-05T09:48:19.478Z</time>
      </trkpt>
      <trkpt lat="50.45244" lon="2.52173">
        <ele>71.601792</ele>
        <time>2022-06-05T09:49:37.952Z</time>
      </trkpt>
      <trkpt lat="50.45297" lon="2.5209">
        <ele>76.116994</ele>
        <time>2022-06-05T09:50:18.184Z</time>
      </trkpt>
      <trkpt lat="50.4533" lon="2.52038">
        <ele>78.962742</ele>
        <time>2022-06-05T09:50:44.293Z</time>
      </trkpt>
      <trkpt lat="50.45454" lon="2.51801">
        <ele>86.59397</ele>
        <time>2022-06-05T09:52:11.937Z</time>
      </trkpt>
      <trkpt lat="50.4553" lon="2.51687">
        <ele>86.710536</ele>
        <time>2022-06-05T09:52:43.471Z</time>
      </trkpt>
      <trkpt lat="50.45589" lon="2.51583">
        <ele>86.368941</ele>
        <time>2022-06-05T09:53:02.571Z</time>
      </trkpt>
      <trkpt lat="50.45662" lon="2.51477">
        <ele>83.274155</ele>
        <time>2022-06-05T09:53:21.586Z</time>
      </trkpt>
      <trkpt lat="50.45737" lon="2.51341">
        <ele>81.138692</ele>
        <time>2022-06-05T09:53:44.467Z</time>
      </trkpt>
      <trkpt lat="50.45816" lon="2.51228">
        <ele>82.070054</ele>
        <time>2022-06-05T09:54:16.431Z</time>
      </trkpt>
      <trkpt lat="50.45942" lon="2.51018">
        <ele>88.128185</ele>
        <time>2022-06-05T09:55:45.375Z</time>
      </trkpt>
      <trkpt lat="50.46117" lon="2.50741">
        <ele>93.794769</ele>
        <time>2022-06-05T09:57:03.071Z</time>
      </trkpt>
      <trkpt lat="50.46184" lon="2.50651">
        <ele>94.626927</ele>
        <time>2022-06-05T09:57:22.183Z</time>
      </trkpt>
      <trkpt lat="50.46201" lon="2.50617">
        <ele>94.890947</ele>
        <time>2022-06-05T09:57:28.255Z</time>
      </trkpt>
      <trkpt lat="50.4622" lon="2.50573">
        <ele>95.245089</ele>
        <time>2022-06-05T09:57:35.810Z</time>
      </trkpt>
      <trkpt lat="50.46425" lon="2.50252">
        <ele>99.674676</ele>
        <time>2022-06-05T09:58:59.204Z</time>
      </trkpt>
      <trkpt lat="50.46426" lon="2.50244">
        <ele>99.753471</ele>
        <time>2022-06-05T09:59:01.434Z</time>
      </trkpt>
      <trkpt lat="50.46535" lon="2.50062">
        <ele>99.49035</ele>
        <time>2022-06-05T09:59:41.484Z</time>
      </trkpt>
      <trkpt lat="50.46618" lon="2.49949">
        <ele>96.538542</ele>
        <time>2022-06-05T09:59:58.025Z</time>
      </trkpt>
      <trkpt lat="50.46642" lon="2.4991">
        <ele>94.143767</ele>
        <time>2022-06-05T10:00:02.745Z</time>
      </trkpt>
      <trkpt lat="50.46767" lon="2.49696">
        <ele>81.0181</ele>
        <time>2022-06-05T10:00:26.978Z</time>
      </trkpt>
      <trkpt lat="50.46771" lon="2.49689">
        <ele>80.553701</ele>
        <time>2022-06-05T10:00:27.794Z</time>
      </trkpt>
      <trkpt lat="50.46827" lon="2.49769">
        <ele>74.949978</ele>
        <time>2022-06-05T10:00:44.823Z</time>
      </trkpt>
      <trkpt lat="50.46828" lon="2.49785">
        <ele>74.216843</ele>
        <time>2022-06-05T10:00:47.066Z</time>
      </trkpt>
      <trkpt lat="50.46843" lon="2.49813">
        <ele>72.595684</ele>
        <time>2022-06-05T10:00:52.510Z</time>
      </trkpt>
      <trkpt lat="50.46878" lon="2.49843">
        <ele>70.855312</ele>
        <time>2022-06-05T10:01:01.977Z</time>
      </trkpt>
      <trkpt lat="50.4689" lon="2.49844">
        <ele>70.36077</ele>
        <time>2022-06-05T10:01:04.754Z</time>
      </trkpt>
      <trkpt lat="50.46906" lon="2.49822">
        <ele>69.403989</ele>
        <time>2022-06-05T10:01:10.318Z</time>
      </trkpt>
      <trkpt lat="50.46914" lon="2.49834">
        <ele>68.923269</ele>
        <time>2022-06-05T10:01:12.978Z</time>
      </trkpt>
      <trkpt lat="50.46974" lon="2.49767">
        <ele>65.740843</ele>
        <time>2022-06-05T10:01:31.285Z</time>
      </trkpt>
      <trkpt lat="50.47022" lon="2.49913">
        <ele>63.233541</ele>
        <time>2022-06-05T10:01:58.493Z</time>
      </trkpt>
      <trkpt lat="50.4703" lon="2.49977">
        <ele>62.421709</ele>
        <time>2022-06-05T10:02:10.638Z</time>
      </trkpt>
      <trkpt lat="50.47044" lon="2.50011">
        <ele>61.914007</ele>
        <time>2022-06-05T10:02:18.356Z</time>
      </trkpt>
      <trkpt lat="50.47063" lon="2.50047">
        <ele>61.358669</ele>
        <time>2022-06-05T10:02:27.166Z</time>
      </trkpt>
      <trkpt lat="50.47105" lon="2.50075">
        <ele>60.907065</ele>
        <time>2022-06-05T10:02:40.612Z</time>
      </trkpt>
      <trkpt lat="50.4712" lon="2.50097">
        <ele>60.703342</ele>
        <time>2022-06-05T10:02:46.575Z</time>
      </trkpt>
      <trkpt lat="50.47129" lon="2.50119">
        <ele>60.540437</ele>
        <time>2022-06-05T10:02:51.427Z</time>
      </trkpt>
      <trkpt lat="50.47131" lon="2.50164">
        <ele>60.256244</ele>
        <time>2022-06-05T10:02:59.664Z</time>
      </trkpt>
      <trkpt lat="50.47176" lon="2.50201">
        <ele>59.746533</ele>
        <time>2022-06-05T10:03:14.677Z</time>
      </trkpt>
      <trkpt lat="50.47215" lon="2.50287">
        <ele>59.000381</ele>
        <time>2022-06-05T10:03:34.518Z</time>
      </trkpt>
      <trkpt lat="50.47219" lon="2.50298">
        <ele>58.910922</ele>
        <time>2022-06-05T10:03:36.803Z</time>
      </trkpt>
      <trkpt lat="50.4723" lon="2.50324">
        <ele>58.690738</ele>
        <time>2022-06-05T10:03:42.348Z</time>
      </trkpt>
      <trkpt lat="50.47243" lon="2.50334">
        <ele>58.522546</ele>
        <time>2022-06-05T10:03:46.610Z</time>
      </trkpt>
      <trkpt lat="50.47246" lon="2.50357">
        <ele>58.349438</ele>
        <time>2022-06-05T10:03:51.038Z</time>
      </trkpt>
      <trkpt lat="50.47258" lon="2.50365">
        <ele>58.204391</ele>
        <time>2022-06-05T10:03:54.721Z</time>
      </trkpt>
      <trkpt lat="50.47261" lon="2.50366">
        <ele>58.168896</ele>
        <time>2022-06-05T10:03:55.613Z</time>
      </trkpt>
      <trkpt lat="50.47271" lon="2.50381">
        <ele>58.010545</ele>
        <time>2022-06-05T10:03:59.615Z</time>
      </trkpt>
      <trkpt lat="50.47254" lon="2.50417">
        <ele>57.688593</ele>
        <time>2022-06-05T10:04:04.324Z</time>
      </trkpt>
      <trkpt lat="50.47289" lon="2.50494">
        <ele>56.85834</ele>
        <time>2022-06-05T10:04:14.733Z</time>
      </trkpt>
      <trkpt lat="50.47297" lon="2.50511">
        <ele>56.674163</ele>
        <time>2022-06-05T10:04:16.893Z</time>
      </trkpt>
      <trkpt lat="50.47404" lon="2.50702">
        <ele>54.518406</ele>
        <time>2022-06-05T10:04:44.728Z</time>
      </trkpt>
      <trkpt lat="50.47449" lon="2.50795">
        <ele>53.73278</ele>
        <time>2022-06-05T10:04:58.065Z</time>
      </trkpt>
      <trkpt lat="50.47487" lon="2.50875">
        <ele>53.097045</ele>
        <time>2022-06-05T10:05:09.455Z</time>
      </trkpt>
      <trkpt lat="50.47521" lon="2.50981">
        <ele>53.549175</ele>
        <time>2022-06-05T10:05:23.527Z</time>
      </trkpt>
      <trkpt lat="50.47529" lon="2.51022">
        <ele>53.714402</ele>
        <time>2022-06-05T10:05:29.616Z</time>
      </trkpt>
      <trkpt lat="50.4753" lon="2.51037">
        <ele>53.772975</ele>
        <time>2022-06-05T10:05:31.873Z</time>
      </trkpt>
      <trkpt lat="50.47533" lon="2.51137">
        <ele>54.15532</ele>
        <time>2022-06-05T10:05:50.736Z</time>
      </trkpt>
      <trkpt lat="50.47536" lon="2.51226">
        <ele>55.507651</ele>
        <time>2022-06-05T10:06:10.227Z</time>
      </trkpt>
      <trkpt lat="50.47526" lon="2.51232">
        <ele>55.752534</ele>
        <time>2022-06-05T10:06:13.847Z</time>
      </trkpt>
      <trkpt lat="50.47493" lon="2.5123">
        <ele>56.550317</ele>
        <time>2022-06-05T10:06:25.178Z</time>
      </trkpt>
      <trkpt lat="50.47487" lon="2.51229">
        <ele>56.713455</ele>
        <time>2022-06-05T10:06:27.533Z</time>
      </trkpt>
      <trkpt lat="50.47471" lon="2.51227">
        <ele>57.096129</ele>
        <time>2022-06-05T10:06:33.025Z</time>
      </trkpt>
      <trkpt lat="50.47431" lon="2.5122">
        <ele>58.083934</ele>
        <time>2022-06-05T10:06:46.876Z</time>
      </trkpt>
      <trkpt lat="50.47427" lon="2.51374">
        <ele>58.002219</ele>
        <time>2022-06-05T10:07:13.326Z</time>
      </trkpt>
      <trkpt lat="50.47431" lon="2.5148">
        <ele>57.557715</ele>
        <time>2022-06-05T10:07:24.561Z</time>
      </trkpt>
      <trkpt lat="50.47507" lon="2.51659">
        <ele>54.47554</ele>
        <time>2022-06-05T10:07:45.498Z</time>
      </trkpt>
      <trkpt lat="50.47514" lon="2.51678">
        <ele>54.096017</ele>
        <time>2022-06-05T10:07:47.629Z</time>
      </trkpt>
      <trkpt lat="50.47586" lon="2.51868">
        <ele>51.404029</ele>
        <time>2022-06-05T10:08:10.573Z</time>
      </trkpt>
      <trkpt lat="50.47606" lon="2.51934">
        <ele>50.809582</ele>
        <time>2022-06-05T10:08:19.012Z</time>
      </trkpt>
      <trkpt lat="50.47598" lon="2.5194">
        <ele>50.701122</ele>
        <time>2022-06-05T10:08:22.341Z</time>
      </trkpt>
      <trkpt lat="50.47567" lon="2.51928">
        <ele>50.286676</ele>
        <time>2022-06-05T10:08:32.085Z</time>
      </trkpt>
      <trkpt lat="50.47542" lon="2.51902">
        <ele>50.081727</ele>
        <time>2022-06-05T10:08:40.894Z</time>
      </trkpt>
      <trkpt lat="50.4753" lon="2.51898">
        <ele>50.048896</ele>
        <time>2022-06-05T10:08:45.901Z</time>
      </trkpt>
      <trkpt lat="50.47455" lon="2.51979">
        <ele>49.809194</ele>
        <time>2022-06-05T10:09:14.149Z</time>
      </trkpt>
      <trkpt lat="50.47444" lon="2.51963">
        <ele>49.769934</ele>
        <time>2022-06-05T10:09:17.648Z</time>
      </trkpt>
      <trkpt lat="50.47438" lon="2.51963">
        <ele>49.753303</ele>
        <time>2022-06-05T10:09:19.032Z</time>
      </trkpt>
      <trkpt lat="50.47422" lon="2.51983">
        <ele>49.700367</ele>
        <time>2022-06-05T10:09:22.616Z</time>
      </trkpt>
      <trkpt lat="50.47411" lon="2.52016">
        <ele>49.599039</ele>
        <time>2022-06-05T10:09:27.478Z</time>
      </trkpt>
      <trkpt lat="50.47409" lon="2.52056">
        <ele>49.355242</ele>
        <time>2022-06-05T10:09:32.297Z</time>
      </trkpt>
      <trkpt lat="50.47424" lon="2.52161">
        <ele>48.714294</ele>
        <time>2022-06-05T10:09:44.523Z</time>
      </trkpt>
      <trkpt lat="50.47475" lon="2.52303">
        <ele>47.708105</ele>
        <time>2022-06-05T10:10:02.817Z</time>
      </trkpt>
      <trkpt lat="50.47484" lon="2.52322">
        <ele>47.546721</ele>
        <time>2022-06-05T10:10:05.372Z</time>
      </trkpt>
      <trkpt lat="50.47534" lon="2.52438">
        <ele>46.60179</ele>
        <time>2022-06-05T10:10:20.938Z</time>
      </trkpt>
      <trkpt lat="50.47538" lon="2.52449">
        <ele>46.516852</ele>
        <time>2022-06-05T10:10:22.683Z</time>
      </trkpt>
      <trkpt lat="50.4753" lon="2.52467">
        <ele>46.365676</ele>
        <time>2022-06-05T10:10:25.903Z</time>
      </trkpt>
      <trkpt lat="50.4758" lon="2.52578">
        <ele>45.791298</ele>
        <time>2022-06-05T10:10:41.409Z</time>
      </trkpt>
      <trkpt lat="50.47617" lon="2.52659">
        <ele>45.499353</ele>
        <time>2022-06-05T10:10:53.395Z</time>
      </trkpt>
      <trkpt lat="50.47584" lon="2.52691">
        <ele>45.321</ele>
        <time>2022-06-05T10:11:02.996Z</time>
      </trkpt>
      <trkpt lat="50.47535" lon="2.52745">
        <ele>44.755918</ele>
        <time>2022-06-05T10:11:44.618Z</time>
      </trkpt>
      <trkpt lat="50.47589" lon="2.52836">
        <ele>43.810654</ele>
        <time>2022-06-05T10:12:07.455Z</time>
      </trkpt>
      <trkpt lat="50.47592" lon="2.52869">
        <ele>43.557507</ele>
        <time>2022-06-05T10:12:13.325Z</time>
      </trkpt>
      <trkpt lat="50.4764" lon="2.52922">
        <ele>42.939001</ele>
        <time>2022-06-05T10:12:23.711Z</time>
      </trkpt>
      <trkpt lat="50.47697" lon="2.52969">
        <ele>42.459737</ele>
        <time>2022-06-05T10:12:35.857Z</time>
      </trkpt>
      <trkpt lat="50.47762" lon="2.53047">
        <ele>41.852725</ele>
        <time>2022-06-05T10:12:52.631Z</time>
      </trkpt>
      <trkpt lat="50.47788" lon="2.53096">
        <ele>41.845204</ele>
        <time>2022-06-05T10:13:01.415Z</time>
      </trkpt>
      <trkpt lat="50.47828" lon="2.53168">
        <ele>42.105283</ele>
        <time>2022-06-05T10:13:14.330Z</time>
      </trkpt>
      <trkpt lat="50.47832" lon="2.53168">
        <ele>42.124172</ele>
        <time>2022-06-05T10:13:15.454Z</time>
      </trkpt>
      <trkpt lat="50.47841" lon="2.53159">
        <ele>42.171599</ele>
        <time>2022-06-05T10:13:18.372Z</time>
      </trkpt>
      <trkpt lat="50.47846" lon="2.53153">
        <ele>42.199088</ele>
        <time>2022-06-05T10:13:20.027Z</time>
      </trkpt>
      <trkpt lat="50.4784" lon="2.53138">
        <ele>42.246559</ele>
        <time>2022-06-05T10:13:22.233Z</time>
      </trkpt>
      <trkpt lat="50.47824" lon="2.53102">
        <ele>42.365434</ele>
        <time>2022-06-05T10:13:28.397Z</time>
      </trkpt>
      <trkpt lat="50.47832" lon="2.53104">
        <ele>42.396944</ele>
        <time>2022-06-05T10:13:30.273Z</time>
      </trkpt>
      <trkpt lat="50.47844" lon="2.53093">
        <ele>42.457619</ele>
        <time>2022-06-05T10:13:33.651Z</time>
      </trkpt>
      <trkpt lat="50.47855" lon="2.5308">
        <ele>42.560989</ele>
        <time>2022-06-05T10:13:36.849Z</time>
      </trkpt>
      <trkpt lat="50.47883" lon="2.53063">
        <ele>43.630167</ele>
        <time>2022-06-05T10:13:44.978Z</time>
      </trkpt>
      <trkpt lat="50.47927" lon="2.52984">
        <ele>46.034418</ele>
        <time>2022-06-05T10:14:07.142Z</time>
      </trkpt>
      <trkpt lat="50.47974" lon="2.52944">
        <ele>47.943639</ele>
        <time>2022-06-05T10:14:28.665Z</time>
      </trkpt>
      <trkpt lat="50.48032" lon="2.52925">
        <ele>51.228545</ele>
        <time>2022-06-05T10:14:59.285Z</time>
      </trkpt>
      <trkpt lat="50.48089" lon="2.52937">
        <ele>55.321259</ele>
        <time>2022-06-05T10:15:32.088Z</time>
      </trkpt>
      <trkpt lat="50.48115" lon="2.52945">
        <ele>57.201604</ele>
        <time>2022-06-05T10:15:47.571Z</time>
      </trkpt>
      <trkpt lat="50.48149" lon="2.5295">
        <ele>59.684219</ele>
        <time>2022-06-05T10:16:08.334Z</time>
      </trkpt>
      <trkpt lat="50.48177" lon="2.52943">
        <ele>61.727198</ele>
        <time>2022-06-05T10:16:24.950Z</time>
      </trkpt>
      <trkpt lat="50.48215" lon="2.52923">
        <ele>63.809883</ele>
        <time>2022-06-05T10:16:45.872Z</time>
      </trkpt>
      <trkpt lat="50.48316" lon="2.52839">
        <ele>69.679504</ele>
        <time>2022-06-05T10:17:36.896Z</time>
      </trkpt>
      <trkpt lat="50.48325" lon="2.52833">
        <ele>70.172095</ele>
        <time>2022-06-05T10:17:40.031Z</time>
      </trkpt>
      <trkpt lat="50.48379" lon="2.52792">
        <ele>71.991876</ele>
        <time>2022-06-05T10:17:59.986Z</time>
      </trkpt>
      <trkpt lat="50.48426" lon="2.5276">
        <ele>73.062147</ele>
        <time>2022-06-05T10:18:14.739Z</time>
      </trkpt>
      <trkpt lat="50.48454" lon="2.52739">
        <ele>73.708995</ele>
        <time>2022-06-05T10:18:23.160Z</time>
      </trkpt>
      <trkpt lat="50.4847" lon="2.52728">
        <ele>74.070763</ele>
        <time>2022-06-05T10:18:27.735Z</time>
      </trkpt>
      <trkpt lat="50.48474" lon="2.52725">
        <ele>74.182957</ele>
        <time>2022-06-05T10:18:29.182Z</time>
      </trkpt>
      <trkpt lat="50.48505" lon="2.52705">
        <ele>74.87306</ele>
        <time>2022-06-05T10:18:37.778Z</time>
      </trkpt>
      <trkpt lat="50.48569" lon="2.52656">
        <ele>75.807242</ele>
        <time>2022-06-05T10:18:56.822Z</time>
      </trkpt>
      <trkpt lat="50.48644" lon="2.52568">
        <ele>77.02117</ele>
        <time>2022-06-05T10:19:21.153Z</time>
      </trkpt>
      <trkpt lat="50.48664" lon="2.52527">
        <ele>77.314833</ele>
        <time>2022-06-05T10:19:28.773Z</time>
      </trkpt>
      <trkpt lat="50.48713" lon="2.52416">
        <ele>77.804213</ele>
        <time>2022-06-05T10:19:48.130Z</time>
      </trkpt>
      <trkpt lat="50.48737" lon="2.52382">
        <ele>77.986375</ele>
        <time>2022-06-05T10:19:55.083Z</time>
      </trkpt>
      <trkpt lat="50.48812" lon="2.52353">
        <ele>78.249649</ele>
        <time>2022-06-05T10:20:10.465Z</time>
      </trkpt>
      <trkpt lat="50.48854" lon="2.52358">
        <ele>78.266065</ele>
        <time>2022-06-05T10:20:19.043Z</time>
      </trkpt>
      <trkpt lat="50.48941" lon="2.52199">
        <ele>78.130642</ele>
        <time>2022-06-05T10:20:46.123Z</time>
      </trkpt>
      <trkpt lat="50.48991" lon="2.52128">
        <ele>77.71391</ele>
        <time>2022-06-05T10:20:58.258Z</time>
      </trkpt>
      <trkpt lat="50.49059" lon="2.52047">
        <ele>77.194203</ele>
        <time>2022-06-05T10:21:23.526Z</time>
      </trkpt>
      <trkpt lat="50.49086" lon="2.52029">
        <ele>77.185943</ele>
        <time>2022-06-05T10:21:32.426Z</time>
      </trkpt>
      <trkpt lat="50.49064" lon="2.51811">
        <ele>77.147165</ele>
        <time>2022-06-05T10:22:16.635Z</time>
      </trkpt>
      <trkpt lat="50.49065" lon="2.51753">
        <ele>77.741055</ele>
        <time>2022-06-05T10:22:30.691Z</time>
      </trkpt>
      <trkpt lat="50.49082" lon="2.51655">
        <ele>79.087644</ele>
        <time>2022-06-05T10:22:56.826Z</time>
      </trkpt>
      <trkpt lat="50.49087" lon="2.51626">
        <ele>79.495574</ele>
        <time>2022-06-05T10:23:05.313Z</time>
      </trkpt>
      <trkpt lat="50.49081" lon="2.51474">
        <ele>81.963115</ele>
        <time>2022-06-05T10:23:50.325Z</time>
      </trkpt>
      <trkpt lat="50.48925" lon="2.51044">
        <ele>92.957698</ele>
        <time>2022-06-05T10:26:29.585Z</time>
      </trkpt>
      <trkpt lat="50.48869" lon="2.50908">
        <ele>93.975262</ele>
        <time>2022-06-05T10:26:59.833Z</time>
      </trkpt>
      <trkpt lat="50.48803" lon="2.50723">
        <ele>92.912083</ele>
        <time>2022-06-05T10:27:24.441Z</time>
      </trkpt>
      <trkpt lat="50.48782" lon="2.50673">
        <ele>91.51526</ele>
        <time>2022-06-05T10:27:30.183Z</time>
      </trkpt>
      <trkpt lat="50.48815" lon="2.50644">
        <ele>90.141658</ele>
        <time>2022-06-05T10:27:35.970Z</time>
      </trkpt>
      <trkpt lat="50.48871" lon="2.50582">
        <ele>87.380417</ele>
        <time>2022-06-05T10:27:45.671Z</time>
      </trkpt>
      <trkpt lat="50.48927" lon="2.50505">
        <ele>81.985592</ele>
        <time>2022-06-05T10:27:55.700Z</time>
      </trkpt>
      <trkpt lat="50.48949" lon="2.50476">
        <ele>79.937878</ele>
        <time>2022-06-05T10:27:59.440Z</time>
      </trkpt>
      <trkpt lat="50.48968" lon="2.5045">
        <ele>78.129917</ele>
        <time>2022-06-05T10:28:02.734Z</time>
      </trkpt>
      <trkpt lat="50.49076" lon="2.503">
        <ele>66.838001</ele>
        <time>2022-06-05T10:28:21.609Z</time>
      </trkpt>
      <trkpt lat="50.4916" lon="2.50175">
        <ele>58.056511</ele>
        <time>2022-06-05T10:28:36.785Z</time>
      </trkpt>
      <trkpt lat="50.49219" lon="2.50112">
        <ele>53.622622</ele>
        <time>2022-06-05T10:28:46.287Z</time>
      </trkpt>
      <trkpt lat="50.49278" lon="2.50065">
        <ele>49.43849</ele>
        <time>2022-06-05T10:28:55.750Z</time>
      </trkpt>
      <trkpt lat="50.49294" lon="2.5005">
        <ele>48.805422</ele>
        <time>2022-06-05T10:28:58.558Z</time>
      </trkpt>
      <trkpt lat="50.49326" lon="2.49997">
        <ele>48.085232</ele>
        <time>2022-06-05T10:29:05.804Z</time>
      </trkpt>
      <trkpt lat="50.49274" lon="2.4992">
        <ele>46.973201</ele>
        <time>2022-06-05T10:29:22.310Z</time>
      </trkpt>
      <trkpt lat="50.49246" lon="2.49905">
        <ele>46.510673</ele>
        <time>2022-06-05T10:29:29.520Z</time>
      </trkpt>
      <trkpt lat="50.49217" lon="2.49854">
        <ele>46.122579</ele>
        <time>2022-06-05T10:29:38.657Z</time>
      </trkpt>
      <trkpt lat="50.49181" lon="2.49744">
        <ele>45.896957</ele>
        <time>2022-06-05T10:29:56.476Z</time>
      </trkpt>
      <trkpt lat="50.49184" lon="2.49741">
        <ele>45.886038</ele>
        <time>2022-06-05T10:29:58.211Z</time>
      </trkpt>
      <trkpt lat="50.49199" lon="2.49727">
        <ele>45.836411</ele>
        <time>2022-06-05T10:30:05.672Z</time>
      </trkpt>
      <trkpt lat="50.49239" lon="2.4964">
        <ele>45.518329</ele>
        <time>2022-06-05T10:30:34.878Z</time>
      </trkpt>
      <trkpt lat="50.4926" lon="2.49609">
        <ele>45.120361</ele>
        <time>2022-06-05T10:30:47.200Z</time>
      </trkpt>
      <trkpt lat="50.49283" lon="2.4962">
        <ele>44.788254</ele>
        <time>2022-06-05T10:30:57.483Z</time>
      </trkpt>
      <trkpt lat="50.49295" lon="2.49605">
        <ele>44.576459</ele>
        <time>2022-06-05T10:31:04.042Z</time>
      </trkpt>
      <trkpt lat="50.49297" lon="2.49582">
        <ele>44.372451</ele>
        <time>2022-06-05T10:31:10.359Z</time>
      </trkpt>
      <trkpt lat="50.49344" lon="2.49562">
        <ele>43.699815</ele>
        <time>2022-06-05T10:31:31.185Z</time>
      </trkpt>
      <trkpt lat="50.49391" lon="2.49542">
        <ele>43.106085</ele>
        <time>2022-06-05T10:31:52.009Z</time>
      </trkpt>
      <trkpt lat="50.49377" lon="2.49544">
        <ele>43.008276</ele>
        <time>2022-06-05T10:31:57.885Z</time>
      </trkpt>
      <trkpt lat="50.49426" lon="2.49595">
        <ele>42.593757</ele>
        <time>2022-06-05T10:32:08.946Z</time>
      </trkpt>
      <trkpt lat="50.49442" lon="2.49622">
        <ele>42.427368</ele>
        <time>2022-06-05T10:32:12.972Z</time>
      </trkpt>
      <trkpt lat="50.4945" lon="2.49654">
        <ele>42.271523</ele>
        <time>2022-06-05T10:32:17.008Z</time>
      </trkpt>
      <trkpt lat="50.4945" lon="2.49671">
        <ele>42.193758</ele>
        <time>2022-06-05T10:32:18.965Z</time>
      </trkpt>
      <trkpt lat="50.49461" lon="2.49701">
        <ele>42.036564</ele>
        <time>2022-06-05T10:32:23.279Z</time>
      </trkpt>
      <trkpt lat="50.49447" lon="2.49758">
        <ele>41.945332</ele>
        <time>2022-06-05T10:32:31.006Z</time>
      </trkpt>
      <trkpt lat="50.49378" lon="2.49901">
        <ele>42.125937</ele>
        <time>2022-06-05T10:32:55.394Z</time>
      </trkpt>
      <trkpt lat="50.49373" lon="2.4991">
        <ele>42.137</ele>
        <time>2022-06-05T10:32:56.793Z</time>
      </trkpt>
      <trkpt lat="50.49362" lon="2.49932">
        <ele>42.166107</ele>
        <time>2022-06-05T10:33:00.578Z</time>
      </trkpt>
      <trkpt lat="50.49353" lon="2.4995">
        <ele>42.188487</ele>
        <time>2022-06-05T10:33:03.630Z</time>
      </trkpt>
      <trkpt lat="50.49414" lon="2.50038">
        <ele>42.68966</ele>
        <time>2022-06-05T10:33:32.450Z</time>
      </trkpt>
      <trkpt lat="50.49432" lon="2.50054">
        <ele>42.821782</ele>
        <time>2022-06-05T10:33:39.944Z</time>
      </trkpt>
      <trkpt lat="50.49504" lon="2.50072">
        <ele>43.279715</ele>
        <time>2022-06-05T10:34:06.003Z</time>
      </trkpt>
      <trkpt lat="50.49555" lon="2.50095">
        <ele>43.558121</ele>
        <time>2022-06-05T10:34:24.614Z</time>
      </trkpt>
      <trkpt lat="50.49634" lon="2.50161">
        <ele>44.009099</ele>
        <time>2022-06-05T10:34:55.170Z</time>
      </trkpt>
      <trkpt lat="50.49676" lon="2.50223">
        <ele>44.275521</ele>
        <time>2022-06-05T10:35:14.239Z</time>
      </trkpt>
      <trkpt lat="50.49712" lon="2.50327">
        <ele>44.502637</ele>
        <time>2022-06-05T10:35:39.420Z</time>
      </trkpt>
      <trkpt lat="50.49721" lon="2.50379">
        <ele>44.606372</ele>
        <time>2022-06-05T10:35:51.077Z</time>
      </trkpt>
      <trkpt lat="50.49748" lon="2.5048">
        <ele>44.746926</ele>
        <time>2022-06-05T10:36:14.085Z</time>
      </trkpt>
      <trkpt lat="50.49748" lon="2.50499">
        <ele>44.712031</ele>
        <time>2022-06-05T10:36:18.228Z</time>
      </trkpt>
      <trkpt lat="50.49754" lon="2.50507">
        <ele>44.688598</ele>
        <time>2022-06-05T10:36:19.811Z</time>
      </trkpt>
      <trkpt lat="50.49734" lon="2.50553">
        <ele>44.584526</ele>
        <time>2022-06-05T10:36:31.217Z</time>
      </trkpt>
      <trkpt lat="50.49729" lon="2.50595">
        <ele>44.506282</ele>
        <time>2022-06-05T10:36:39.782Z</time>
      </trkpt>
      <trkpt lat="50.49802" lon="2.50816">
        <ele>43.587989</ele>
        <time>2022-06-05T10:37:27.329Z</time>
      </trkpt>
      <trkpt lat="50.49811" lon="2.50842">
        <ele>43.414135</ele>
        <time>2022-06-05T10:37:32.827Z</time>
      </trkpt>
      <trkpt lat="50.49812" lon="2.50844">
        <ele>43.399019</ele>
        <time>2022-06-05T10:37:33.330Z</time>
      </trkpt>
      <trkpt lat="50.49823" lon="2.50857">
        <ele>43.276272</ele>
        <time>2022-06-05T10:37:37.476Z</time>
      </trkpt>
      <trkpt lat="50.49858" lon="2.50862">
        <ele>42.950693</ele>
        <time>2022-06-05T10:37:47.896Z</time>
      </trkpt>
      <trkpt lat="50.49871" lon="2.5087">
        <ele>42.827774</ele>
        <time>2022-06-05T10:37:51.747Z</time>
      </trkpt>
      <trkpt lat="50.49886" lon="2.50927">
        <ele>42.424449</ele>
        <time>2022-06-05T10:38:03.009Z</time>
      </trkpt>
      <trkpt lat="50.49904" lon="2.50951">
        <ele>42.151614</ele>
        <time>2022-06-05T10:38:09.452Z</time>
      </trkpt>
      <trkpt lat="50.49922" lon="2.50969">
        <ele>41.902342</ele>
        <time>2022-06-05T10:38:15.432Z</time>
      </trkpt>
      <trkpt lat="50.49949" lon="2.50978">
        <ele>41.583806</ele>
        <time>2022-06-05T10:38:23.294Z</time>
      </trkpt>
      <trkpt lat="50.49995" lon="2.51014">
        <ele>40.988796</ele>
        <time>2022-06-05T10:38:38.155Z</time>
      </trkpt>
      <trkpt lat="50.5003" lon="2.5102">
        <ele>40.568207</ele>
        <time>2022-06-05T10:38:48.711Z</time>
      </trkpt>
      <trkpt lat="50.50035" lon="2.51033">
        <ele>40.552513</ele>
        <time>2022-06-05T10:38:51.213Z</time>
      </trkpt>
      <trkpt lat="50.5004" lon="2.51039">
        <ele>40.593409</ele>
        <time>2022-06-05T10:38:53.159Z</time>
      </trkpt>
      <trkpt lat="50.50043" lon="2.51032">
        <ele>40.628998</ele>
        <time>2022-06-05T10:38:54.296Z</time>
      </trkpt>
      <trkpt lat="50.50056" lon="2.50998">
        <ele>40.794317</ele>
        <time>2022-06-05T10:38:58.997Z</time>
      </trkpt>
      <trkpt lat="50.50061" lon="2.50986">
        <ele>40.852225</ele>
        <time>2022-06-05T10:39:01.006Z</time>
      </trkpt>
      <trkpt lat="50.50112" lon="2.50862">
        <ele>41.465605</ele>
        <time>2022-06-05T10:39:24.213Z</time>
      </trkpt>
      <trkpt lat="50.50214" lon="2.507">
        <ele>43.703109</ele>
        <time>2022-06-05T10:40:07.758Z</time>
      </trkpt>
      <trkpt lat="50.5022" lon="2.50706">
        <ele>43.835461</ele>
        <time>2022-06-05T10:40:09.940Z</time>
      </trkpt>
      <trkpt lat="50.50231" lon="2.50719">
        <ele>44.091512</ele>
        <time>2022-06-05T10:40:14.262Z</time>
      </trkpt>
      <trkpt lat="50.50242" lon="2.50733">
        <ele>44.348759</ele>
        <time>2022-06-05T10:40:19.043Z</time>
      </trkpt>
      <trkpt lat="50.50272" lon="2.50777">
        <ele>44.99808</ele>
        <time>2022-06-05T10:40:30.476Z</time>
      </trkpt>
      <trkpt lat="50.50289" lon="2.50806">
        <ele>45.072481</ele>
        <time>2022-06-05T10:40:35.914Z</time>
      </trkpt>
      <trkpt lat="50.50292" lon="2.508">
        <ele>45.08767</ele>
        <time>2022-06-05T10:40:37.716Z</time>
      </trkpt>
      <trkpt lat="50.50296" lon="2.50801">
        <ele>45.10077</ele>
        <time>2022-06-05T10:40:38.904Z</time>
      </trkpt>
      <trkpt lat="50.50304" lon="2.50784">
        <ele>45.142993</ele>
        <time>2022-06-05T10:40:42.356Z</time>
      </trkpt>
      <trkpt lat="50.50331" lon="2.50724">
        <ele>45.286468</ele>
        <time>2022-06-05T10:40:54.021Z</time>
      </trkpt>
      <trkpt lat="50.50337" lon="2.5073">
        <ele>45.308325</ele>
        <time>2022-06-05T10:40:56.161Z</time>
      </trkpt>
      <trkpt lat="50.5034" lon="2.50724">
        <ele>45.322831</ele>
        <time>2022-06-05T10:40:57.123Z</time>
      </trkpt>
      <trkpt lat="50.50348" lon="2.50735">
        <ele>45.356124</ele>
        <time>2022-06-05T10:40:59.431Z</time>
      </trkpt>
      <trkpt lat="50.5036" lon="2.5076">
        <ele>45.416998</ele>
        <time>2022-06-05T10:41:03.608Z</time>
      </trkpt>
      <trkpt lat="50.50373" lon="2.5079">
        <ele>45.488002</ele>
        <time>2022-06-05T10:41:08.198Z</time>
      </trkpt>
      <trkpt lat="50.50404" lon="2.50863">
        <ele>44.930627</ele>
        <time>2022-06-05T10:41:18.833Z</time>
      </trkpt>
      <trkpt lat="50.5043" lon="2.50831">
        <ele>44.459309</ele>
        <time>2022-06-05T10:41:24.681Z</time>
      </trkpt>
      <trkpt lat="50.5045" lon="2.5081">
        <ele>44.126576</ele>
        <time>2022-06-05T10:41:28.601Z</time>
      </trkpt>
      <trkpt lat="50.5049" lon="2.5091">
        <ele>43.066762</ele>
        <time>2022-06-05T10:41:40.893Z</time>
      </trkpt>
      <trkpt lat="50.50513" lon="2.50975">
        <ele>42.213023</ele>
        <time>2022-06-05T10:41:48.731Z</time>
      </trkpt>
      <trkpt lat="50.50487" lon="2.51038">
        <ele>41.327644</ele>
        <time>2022-06-05T10:41:56.497Z</time>
      </trkpt>
      <trkpt lat="50.50468" lon="2.51083">
        <ele>40.690229</ele>
        <time>2022-06-05T10:42:02.109Z</time>
      </trkpt>
      <trkpt lat="50.50458" lon="2.51102">
        <ele>40.399779</ele>
        <time>2022-06-05T10:42:04.743Z</time>
      </trkpt>
      <trkpt lat="50.50454" lon="2.51103">
        <ele>40.328467</ele>
        <time>2022-06-05T10:42:05.354Z</time>
      </trkpt>
      <trkpt lat="50.5045" lon="2.51107">
        <ele>40.22696</ele>
        <time>2022-06-05T10:42:06.197Z</time>
      </trkpt>
      <trkpt lat="50.50447" lon="2.51113">
        <ele>40.148283</ele>
        <time>2022-06-05T10:42:06.866Z</time>
      </trkpt>
      <trkpt lat="50.50447" lon="2.51126">
        <ele>39.999387</ele>
        <time>2022-06-05T10:42:08.148Z</time>
      </trkpt>
      <trkpt lat="50.50452" lon="2.51135">
        <ele>39.85226</ele>
        <time>2022-06-05T10:42:09.455Z</time>
      </trkpt>
      <trkpt lat="50.50461" lon="2.51137">
        <ele>39.679913</ele>
        <time>2022-06-05T10:42:10.966Z</time>
      </trkpt>
      <trkpt lat="50.50478" lon="2.51146">
        <ele>39.579173</ele>
        <time>2022-06-05T10:42:13.842Z</time>
      </trkpt>
      <trkpt lat="50.50504" lon="2.51186">
        <ele>39.413794</ele>
        <time>2022-06-05T10:42:19.973Z</time>
      </trkpt>
      <trkpt lat="50.50509" lon="2.51195">
        <ele>39.379723</ele>
        <time>2022-06-05T10:42:21.289Z</time>
      </trkpt>
      <trkpt lat="50.50566" lon="2.51332">
        <ele>38.903596</ele>
        <time>2022-06-05T10:42:40.792Z</time>
      </trkpt>
      <trkpt lat="50.5057" lon="2.51343">
        <ele>38.866635</ele>
        <time>2022-06-05T10:42:42.395Z</time>
      </trkpt>
      <trkpt lat="50.50632" lon="2.5147">
        <ele>39.166401</ele>
        <time>2022-06-05T10:43:03.772Z</time>
      </trkpt>
      <trkpt lat="50.50633" lon="2.51478">
        <ele>39.184773</ele>
        <time>2022-06-05T10:43:04.915Z</time>
      </trkpt>
      <trkpt lat="50.50634" lon="2.515">
        <ele>39.235293</ele>
        <time>2022-06-05T10:43:08.102Z</time>
      </trkpt>
      <trkpt lat="50.50628" lon="2.51513">
        <ele>39.271826</ele>
        <time>2022-06-05T10:43:10.238Z</time>
      </trkpt>
      <trkpt lat="50.50619" lon="2.51532">
        <ele>39.325842</ele>
        <time>2022-06-05T10:43:13.572Z</time>
      </trkpt>
      <trkpt lat="50.50618" lon="2.51554">
        <ele>39.376988</ele>
        <time>2022-06-05T10:43:16.745Z</time>
      </trkpt>
      <trkpt lat="50.50626" lon="2.51571">
        <ele>39.423095</ele>
        <time>2022-06-05T10:43:19.461Z</time>
      </trkpt>
      <trkpt lat="50.50641" lon="2.51578">
        <ele>39.473111</ele>
        <time>2022-06-05T10:43:22.787Z</time>
      </trkpt>
      <trkpt lat="50.50649" lon="2.51574">
        <ele>39.486705</ele>
        <time>2022-06-05T10:43:24.693Z</time>
      </trkpt>
      <trkpt lat="50.50657" lon="2.51578">
        <ele>39.499143</ele>
        <time>2022-06-05T10:43:26.409Z</time>
      </trkpt>
      <trkpt lat="50.50668" lon="2.51589">
        <ele>39.517451</ele>
        <time>2022-06-05T10:43:29.041Z</time>
      </trkpt>
      <trkpt lat="50.5068" lon="2.51627">
        <ele>39.557131</ele>
        <time>2022-06-05T10:43:34.476Z</time>
      </trkpt>
      <trkpt lat="50.50764" lon="2.51802">
        <ele>39.650565</ele>
        <time>2022-06-05T10:44:01.855Z</time>
      </trkpt>
      <trkpt lat="50.50778" lon="2.51828">
        <ele>39.551422</ele>
        <time>2022-06-05T10:44:05.885Z</time>
      </trkpt>
      <trkpt lat="50.50787" lon="2.51847">
        <ele>39.480288</ele>
        <time>2022-06-05T10:44:08.605Z</time>
      </trkpt>
      <trkpt lat="50.50816" lon="2.51882">
        <ele>39.314215</ele>
        <time>2022-06-05T10:44:15.073Z</time>
      </trkpt>
      <trkpt lat="50.50814" lon="2.51888">
        <ele>39.296705</ele>
        <time>2022-06-05T10:44:15.872Z</time>
      </trkpt>
      <trkpt lat="50.50823" lon="2.51906">
        <ele>39.227063</ele>
        <time>2022-06-05T10:44:18.944Z</time>
      </trkpt>
      <trkpt lat="50.50822" lon="2.51922">
        <ele>39.180649</ele>
        <time>2022-06-05T10:44:20.878Z</time>
      </trkpt>
      <trkpt lat="50.50828" lon="2.51959">
        <ele>39.069256</ele>
        <time>2022-06-05T10:44:25.723Z</time>
      </trkpt>
      <trkpt lat="50.50832" lon="2.51988">
        <ele>38.984392</ele>
        <time>2022-06-05T10:44:29.283Z</time>
      </trkpt>
      <trkpt lat="50.50879" lon="2.52162">
        <ele>38.426903</ele>
        <time>2022-06-05T10:44:53.091Z</time>
      </trkpt>
      <trkpt lat="50.50944" lon="2.5243">
        <ele>38.132846</ele>
        <time>2022-06-05T10:45:31.188Z</time>
      </trkpt>
      <trkpt lat="50.50951" lon="2.52437">
        <ele>38.13692</ele>
        <time>2022-06-05T10:45:33.040Z</time>
      </trkpt>
      <trkpt lat="50.50959" lon="2.52479">
        <ele>38.150905</ele>
        <time>2022-06-05T10:45:39.346Z</time>
      </trkpt>
      <trkpt lat="50.5099" lon="2.5257">
        <ele>38.16223</ele>
        <time>2022-06-05T10:45:53.717Z</time>
      </trkpt>
      <trkpt lat="50.50987" lon="2.52573">
        <ele>38.161371</ele>
        <time>2022-06-05T10:45:54.369Z</time>
      </trkpt>
      <trkpt lat="50.5097" lon="2.52586">
        <ele>38.156399</ele>
        <time>2022-06-05T10:45:58.097Z</time>
      </trkpt>
      <trkpt lat="50.50968" lon="2.52588">
        <ele>38.155773</ele>
        <time>2022-06-05T10:45:58.620Z</time>
      </trkpt>
      <trkpt lat="50.51011" lon="2.52759">
        <ele>38.125904</ele>
        <time>2022-06-05T10:46:23.333Z</time>
      </trkpt>
      <trkpt lat="50.51026" lon="2.528">
        <ele>38.057021</ele>
        <time>2022-06-05T10:46:29.623Z</time>
      </trkpt>
      <trkpt lat="50.51095" lon="2.53093">
        <ele>37.560771</ele>
        <time>2022-06-05T10:47:10.063Z</time>
      </trkpt>
      <trkpt lat="50.51184" lon="2.5343">
        <ele>37.637006</ele>
        <time>2022-06-05T10:48:00.983Z</time>
      </trkpt>
      <trkpt lat="50.51186" lon="2.5344">
        <ele>37.646066</ele>
        <time>2022-06-05T10:48:03.310Z</time>
      </trkpt>
      <trkpt lat="50.51239" lon="2.53666">
        <ele>37.605739</ele>
        <time>2022-06-05T10:48:52.384Z</time>
      </trkpt>
      <trkpt lat="50.51258" lon="2.53774">
        <ele>37.465554</ele>
        <time>2022-06-05T10:49:14.757Z</time>
      </trkpt>
      <trkpt lat="50.51264" lon="2.53803">
        <ele>37.426714</ele>
        <time>2022-06-05T10:49:20.818Z</time>
      </trkpt>
      <trkpt lat="50.51308" lon="2.53966">
        <ele>36.937818</ele>
        <time>2022-06-05T10:49:54.200Z</time>
      </trkpt>
      <trkpt lat="50.51312" lon="2.53979">
        <ele>36.893329</ele>
        <time>2022-06-05T10:49:56.908Z</time>
      </trkpt>
      <trkpt lat="50.51353" lon="2.54079">
        <ele>36.558718</ele>
        <time>2022-06-05T10:50:15.349Z</time>
      </trkpt>
      <trkpt lat="50.51363" lon="2.54098">
        <ele>36.793025</ele>
        <time>2022-06-05T10:50:19.711Z</time>
      </trkpt>
      <trkpt lat="50.51398" lon="2.5418">
        <ele>37.756489</ele>
        <time>2022-06-05T10:50:37.401Z</time>
      </trkpt>
      <trkpt lat="50.51377" lon="2.54201">
        <ele>38.144942</ele>
        <time>2022-06-05T10:50:43.801Z</time>
      </trkpt>
      <trkpt lat="50.51329" lon="2.54231">
        <ele>38.942098</ele>
        <time>2022-06-05T10:51:19.826Z</time>
      </trkpt>
      <trkpt lat="50.51286" lon="2.54229">
        <ele>40.054664</ele>
        <time>2022-06-05T10:51:49.170Z</time>
      </trkpt>
      <trkpt lat="50.51256" lon="2.54241">
        <ele>41.308514</ele>
        <time>2022-06-05T10:52:10.924Z</time>
      </trkpt>
      <trkpt lat="50.51175" lon="2.54305">
        <ele>44.932473</ele>
        <time>2022-06-05T10:53:13.780Z</time>
      </trkpt>
      <trkpt lat="50.51087" lon="2.54304">
        <ele>49.655206</ele>
        <time>2022-06-05T10:54:15.469Z</time>
      </trkpt>
      <trkpt lat="50.51033" lon="2.54288">
        <ele>53.121748</ele>
        <time>2022-06-05T10:54:53.307Z</time>
      </trkpt>
      <trkpt lat="50.50947" lon="2.54296">
        <ele>58.992542</ele>
        <time>2022-06-05T10:55:53.373Z</time>
      </trkpt>
      <trkpt lat="50.50891" lon="2.54293">
        <ele>64.67615</ele>
        <time>2022-06-05T10:56:32.621Z</time>
      </trkpt>
      <trkpt lat="50.50856" lon="2.543">
        <ele>68.243274</ele>
        <time>2022-06-05T10:56:57.231Z</time>
      </trkpt>
      <trkpt lat="50.50858" lon="2.54319">
        <ele>69.464247</ele>
        <time>2022-06-05T10:57:04.722Z</time>
      </trkpt>
      <trkpt lat="50.50871" lon="2.54403">
        <ele>75.000314</ele>
        <time>2022-06-05T10:57:42.953Z</time>
      </trkpt>
      <trkpt lat="50.50871" lon="2.54408">
        <ele>75.30224</ele>
        <time>2022-06-05T10:57:45.123Z</time>
      </trkpt>
      <trkpt lat="50.5086" lon="2.54461">
        <ele>78.011163</ele>
        <time>2022-06-05T10:58:10.020Z</time>
      </trkpt>
      <trkpt lat="50.50837" lon="2.54507">
        <ele>80.531716</ele>
        <time>2022-06-05T10:58:35.887Z</time>
      </trkpt>
      <trkpt lat="50.50818" lon="2.5453">
        <ele>82.131431</ele>
        <time>2022-06-05T10:58:52.296Z</time>
      </trkpt>
      <trkpt lat="50.50772" lon="2.54555">
        <ele>85.455021</ele>
        <time>2022-06-05T10:59:26.362Z</time>
      </trkpt>
      <trkpt lat="50.50749" lon="2.54582">
        <ele>87.417148</ele>
        <time>2022-06-05T10:59:46.413Z</time>
      </trkpt>
      <trkpt lat="50.50772" lon="2.54555">
        <ele>88.568186</ele>
        <time>2022-06-05T11:00:06.494Z</time>
      </trkpt>
      <trkpt lat="50.50796" lon="2.54728">
        <ele>89.895396</ele>
        <time>2022-06-05T11:01:24.490Z</time>
      </trkpt>
      <trkpt lat="50.50804" lon="2.54825">
        <ele>90.448436</ele>
        <time>2022-06-05T11:02:08.033Z</time>
      </trkpt>
      <trkpt lat="50.50819" lon="2.54893">
        <ele>90.086594</ele>
        <time>2022-06-05T11:02:39.521Z</time>
      </trkpt>
      <trkpt lat="50.50819" lon="2.54955">
        <ele>89.768819</ele>
        <time>2022-06-05T11:03:07.141Z</time>
      </trkpt>
      <trkpt lat="50.50807" lon="2.54986">
        <ele>89.582997</ele>
        <time>2022-06-05T11:03:23.302Z</time>
      </trkpt>
      <trkpt lat="50.50782" lon="2.5505">
        <ele>89.203649</ele>
        <time>2022-06-05T11:03:56.270Z</time>
      </trkpt>
      <trkpt lat="50.50771" lon="2.55087">
        <ele>88.971208</ele>
        <time>2022-06-05T11:04:14.187Z</time>
      </trkpt>
      <trkpt lat="50.50734" lon="2.55156">
        <ele>88.378915</ele>
        <time>2022-06-05T11:04:53.978Z</time>
      </trkpt>
      <trkpt lat="50.50707" lon="2.55226">
        <ele>87.839031</ele>
        <time>2022-06-05T11:05:30.234Z</time>
      </trkpt>
      <trkpt lat="50.50678" lon="2.55131">
        <ele>87.118031</ele>
        <time>2022-06-05T11:06:16.636Z</time>
      </trkpt>
      <trkpt lat="50.50652" lon="2.55144">
        <ele>86.729945</ele>
        <time>2022-06-05T11:06:35.360Z</time>
      </trkpt>
      <trkpt lat="50.50625" lon="2.55181">
        <ele>86.207935</ele>
        <time>2022-06-05T11:07:00.434Z</time>
      </trkpt>
      <trkpt lat="50.50558" lon="2.55223">
        <ele>85.16264</ele>
        <time>2022-06-05T11:07:50.793Z</time>
      </trkpt>
      <trkpt lat="50.50499" lon="2.55242">
        <ele>84.181583</ele>
        <time>2022-06-05T11:08:32.423Z</time>
      </trkpt>
      <trkpt lat="50.50444" lon="2.55267">
        <ele>83.075073</ele>
        <time>2022-06-05T11:09:11.762Z</time>
      </trkpt>
      <trkpt lat="50.50437" lon="2.55277">
        <ele>82.885622</ele>
        <time>2022-06-05T11:09:18.565Z</time>
      </trkpt>
      <trkpt lat="50.50437" lon="2.55345">
        <ele>82.04247</ele>
        <time>2022-06-05T11:09:48.565Z</time>
      </trkpt>
      <trkpt lat="50.50437" lon="2.55347">
        <ele>82.020119</ele>
        <time>2022-06-05T11:09:49.353Z</time>
      </trkpt>
      <trkpt lat="50.50423" lon="2.55389">
        <ele>81.428567</ele>
        <time>2022-06-05T11:10:10.382Z</time>
      </trkpt>
      <trkpt lat="50.50398" lon="2.55415">
        <ele>81.023977</ele>
        <time>2022-06-05T11:10:30.859Z</time>
      </trkpt>
      <trkpt lat="50.50396" lon="2.55442">
        <ele>80.902433</ele>
        <time>2022-06-05T11:10:43.137Z</time>
      </trkpt>
      <trkpt lat="50.50421" lon="2.5553">
        <ele>80.478812</ele>
        <time>2022-06-05T11:11:25.842Z</time>
      </trkpt>
      <trkpt lat="50.50438" lon="2.55553">
        <ele>80.324039</ele>
        <time>2022-06-05T11:11:41.448Z</time>
      </trkpt>
      <trkpt lat="50.50441" lon="2.55565">
        <ele>80.267839</ele>
        <time>2022-06-05T11:11:47.123Z</time>
      </trkpt>
      <trkpt lat="50.50445" lon="2.55563">
        <ele>80.235487</ele>
        <time>2022-06-05T11:11:49.196Z</time>
      </trkpt>
      <trkpt lat="50.50443" lon="2.55603">
        <ele>80.059603</ele>
        <time>2022-06-05T11:12:00.110Z</time>
      </trkpt>
      <trkpt lat="50.50451" lon="2.55696">
        <ele>79.050488</ele>
        <time>2022-06-05T11:12:25.637Z</time>
      </trkpt>
      <trkpt lat="50.50441" lon="2.55722">
        <ele>78.569575</ele>
        <time>2022-06-05T11:12:33.903Z</time>
      </trkpt>
      <trkpt lat="50.5043" lon="2.55795">
        <ele>77.382167</ele>
        <time>2022-06-05T11:12:54.311Z</time>
      </trkpt>
      <trkpt lat="50.50424" lon="2.55881">
        <ele>76.019261</ele>
        <time>2022-06-05T11:13:17.741Z</time>
      </trkpt>
      <trkpt lat="50.50417" lon="2.55966">
        <ele>72.94294</ele>
        <time>2022-06-05T11:13:41.195Z</time>
      </trkpt>
      <trkpt lat="50.50426" lon="2.55971">
        <ele>72.122723</ele>
        <time>2022-06-05T11:13:45.462Z</time>
      </trkpt>
      <trkpt lat="50.50419" lon="2.56004">
        <ele>70.284357</ele>
        <time>2022-06-05T11:14:01.055Z</time>
      </trkpt>
      <trkpt lat="50.50405" lon="2.56234">
        <ele>57.872248</ele>
        <time>2022-06-05T11:15:43.197Z</time>
      </trkpt>
      <trkpt lat="50.50403" lon="2.56359">
        <ele>50.271594</ele>
        <time>2022-06-05T11:16:38.871Z</time>
      </trkpt>
      <trkpt lat="50.50395" lon="2.56419">
        <ele>46.530305</ele>
        <time>2022-06-05T11:17:06.207Z</time>
      </trkpt>
      <trkpt lat="50.50358" lon="2.56477">
        <ele>42.623845</ele>
        <time>2022-06-05T11:17:42.190Z</time>
      </trkpt>
      <trkpt lat="50.50335" lon="2.56505">
        <ele>41.353655</ele>
        <time>2022-06-05T11:18:02.589Z</time>
      </trkpt>
      <trkpt lat="50.50192" lon="2.56589">
        <ele>35.573409</ele>
        <time>2022-06-05T11:19:48.522Z</time>
      </trkpt>
      <trkpt lat="50.50194" lon="2.56595">
        <ele>35.551446</ele>
        <time>2022-06-05T11:19:49.349Z</time>
      </trkpt>
      <trkpt lat="50.50204" lon="2.56621">
        <ele>35.456769</ele>
        <time>2022-06-05T11:19:52.878Z</time>
      </trkpt>
      <trkpt lat="50.50226" lon="2.56642">
        <ele>35.326579</ele>
        <time>2022-06-05T11:19:57.949Z</time>
      </trkpt>
      <trkpt lat="50.50274" lon="2.5666">
        <ele>35.076102</ele>
        <time>2022-06-05T11:20:08.123Z</time>
      </trkpt>
      <trkpt lat="50.50272" lon="2.56749">
        <ele>34.790032</ele>
        <time>2022-06-05T11:20:27.439Z</time>
      </trkpt>
      <trkpt lat="50.50268" lon="2.56882">
        <ele>34.862327</ele>
        <time>2022-06-05T11:20:57.130Z</time>
      </trkpt>
      <trkpt lat="50.50492" lon="2.5745">
        <ele>35.018283</ele>
        <time>2022-06-05T11:23:11.761Z</time>
      </trkpt>
      <trkpt lat="50.50554" lon="2.57424">
        <ele>34.961914</ele>
        <time>2022-06-05T11:23:31.374Z</time>
      </trkpt>
      <trkpt lat="50.50602" lon="2.57455">
        <ele>34.924364</ele>
        <time>2022-06-05T11:23:47.478Z</time>
      </trkpt>
      <trkpt lat="50.50611" lon="2.57546">
        <ele>34.881783</ele>
        <time>2022-06-05T11:24:06.152Z</time>
      </trkpt>
      <trkpt lat="50.50601" lon="2.57612">
        <ele>34.863823</ele>
        <time>2022-06-05T11:24:19.791Z</time>
      </trkpt>
      <trkpt lat="50.50604" lon="2.57687">
        <ele>34.96892</ele>
        <time>2022-06-05T11:24:35.868Z</time>
      </trkpt>
      <trkpt lat="50.50615" lon="2.57721">
        <ele>35.02353</ele>
        <time>2022-06-05T11:24:44.925Z</time>
      </trkpt>
      <trkpt lat="50.50644" lon="2.57769">
        <ele>35.116519</ele>
        <time>2022-06-05T11:24:59.394Z</time>
      </trkpt>
      <trkpt lat="50.50679" lon="2.57812">
        <ele>35.215617</ele>
        <time>2022-06-05T11:25:13.995Z</time>
      </trkpt>
      <trkpt lat="50.50726" lon="2.57935">
        <ele>34.455866</ele>
        <time>2022-06-05T11:25:41.349Z</time>
      </trkpt>
      <trkpt lat="50.50746" lon="2.57968">
        <ele>34.146838</ele>
        <time>2022-06-05T11:25:49.700Z</time>
      </trkpt>
      <trkpt lat="50.50767" lon="2.57993">
        <ele>33.865579</ele>
        <time>2022-06-05T11:25:57.290Z</time>
      </trkpt>
      <trkpt lat="50.5079" lon="2.57995">
        <ele>33.62014</ele>
        <time>2022-06-05T11:26:03.660Z</time>
      </trkpt>
      <trkpt lat="50.50805" lon="2.58003">
        <ele>33.453388</ele>
        <time>2022-06-05T11:26:07.139Z</time>
      </trkpt>
      <trkpt lat="50.50854" lon="2.58072">
        <ele>32.407257</ele>
        <time>2022-06-05T11:26:21.400Z</time>
      </trkpt>
      <trkpt lat="50.50861" lon="2.581">
        <ele>32.09071</ele>
        <time>2022-06-05T11:26:25.323Z</time>
      </trkpt>
      <trkpt lat="50.50856" lon="2.58162">
        <ele>31.418522</ele>
        <time>2022-06-05T11:26:33.837Z</time>
      </trkpt>
      <trkpt lat="50.50862" lon="2.58166">
        <ele>31.312997</ele>
        <time>2022-06-05T11:26:34.864Z</time>
      </trkpt>
      <trkpt lat="50.50914" lon="2.58312">
        <ele>30.119729</ele>
        <time>2022-06-05T11:26:53.143Z</time>
      </trkpt>
      <trkpt lat="50.50914" lon="2.58332">
        <ele>30.070008</ele>
        <time>2022-06-05T11:26:55.435Z</time>
      </trkpt>
      <trkpt lat="50.50903" lon="2.58335">
        <ele>30.025178</ele>
        <time>2022-06-05T11:26:57.452Z</time>
      </trkpt>
      <trkpt lat="50.50875" lon="2.58374">
        <ele>29.874399</ele>
        <time>2022-06-05T11:27:04.498Z</time>
      </trkpt>
      <trkpt lat="50.50847" lon="2.58447">
        <ele>29.655015</ele>
        <time>2022-06-05T11:27:15.700Z</time>
      </trkpt>
      <trkpt lat="50.50809" lon="2.58504">
        <ele>29.982403</ele>
        <time>2022-06-05T11:27:26.398Z</time>
      </trkpt>
      <trkpt lat="50.50803" lon="2.58512">
        <ele>30.066472</ele>
        <time>2022-06-05T11:27:27.973Z</time>
      </trkpt>
      <trkpt lat="50.50763" lon="2.58567">
        <ele>30.673965</ele>
        <time>2022-06-05T11:27:39.849Z</time>
      </trkpt>
      <trkpt lat="50.50759" lon="2.58577">
        <ele>30.754569</ele>
        <time>2022-06-05T11:27:41.610Z</time>
      </trkpt>
      <trkpt lat="50.50754" lon="2.58587">
        <ele>30.845485</ele>
        <time>2022-06-05T11:27:43.623Z</time>
      </trkpt>
      <trkpt lat="50.50752" lon="2.58593">
        <ele>30.891905</ele>
        <time>2022-06-05T11:27:44.668Z</time>
      </trkpt>
      <trkpt lat="50.50718" lon="2.5867">
        <ele>31.576418</ele>
        <time>2022-06-05T11:28:01.947Z</time>
      </trkpt>
      <trkpt lat="50.50707" lon="2.58686">
        <ele>31.841941</ele>
        <time>2022-06-05T11:28:06.670Z</time>
      </trkpt>
      <trkpt lat="50.50702" lon="2.58693">
        <ele>31.966511</ele>
        <time>2022-06-05T11:28:08.735Z</time>
      </trkpt>
      <trkpt lat="50.50698" lon="2.587">
        <ele>32.097394</ele>
        <time>2022-06-05T11:28:10.921Z</time>
      </trkpt>
      <trkpt lat="50.50682" lon="2.58725">
        <ele>32.539952</ele>
        <time>2022-06-05T11:28:18.170Z</time>
      </trkpt>
      <trkpt lat="50.50594" lon="2.58848">
        <ele>34.933349</ele>
        <time>2022-06-05T11:28:53.406Z</time>
      </trkpt>
      <trkpt lat="50.50588" lon="2.58859">
        <ele>35.111231</ele>
        <time>2022-06-05T11:28:55.985Z</time>
      </trkpt>
      <trkpt lat="50.50588" lon="2.58875">
        <ele>35.279538</ele>
        <time>2022-06-05T11:28:58.894Z</time>
      </trkpt>
      <trkpt lat="50.50593" lon="2.58892">
        <ele>35.331769</ele>
        <time>2022-06-05T11:29:01.974Z</time>
      </trkpt>
      <trkpt lat="50.50606" lon="2.58926">
        <ele>35.440004</ele>
        <time>2022-06-05T11:29:08.581Z</time>
      </trkpt>
      <trkpt lat="50.5067" lon="2.59104">
        <ele>36.00088</ele>
        <time>2022-06-05T11:29:32.640Z</time>
      </trkpt>
      <trkpt lat="50.50677" lon="2.59127">
        <ele>36.248777</ele>
        <time>2022-06-05T11:29:35.718Z</time>
      </trkpt>
      <trkpt lat="50.50687" lon="2.59159">
        <ele>36.957619</ele>
        <time>2022-06-05T11:29:40.586Z</time>
      </trkpt>
      <trkpt lat="50.50712" lon="2.59241">
        <ele>38.77481</ele>
        <time>2022-06-05T11:29:56.295Z</time>
      </trkpt>
      <trkpt lat="50.50447" lon="2.5948">
        <ele>51.773742</ele>
        <time>2022-06-05T11:32:15.636Z</time>
      </trkpt>
      <trkpt lat="50.50458" lon="2.59556">
        <ele>52.982921</ele>
        <time>2022-06-05T11:32:32.391Z</time>
      </trkpt>
      <trkpt lat="50.50484" lon="2.59673">
        <ele>54.910888</ele>
        <time>2022-06-05T11:32:53.229Z</time>
      </trkpt>
      <trkpt lat="50.50467" lon="2.59674">
        <ele>55.32881</ele>
        <time>2022-06-05T11:32:57.401Z</time>
      </trkpt>
      <trkpt lat="50.5044" lon="2.59665">
        <ele>55.325241</ele>
        <time>2022-06-05T11:33:02.720Z</time>
      </trkpt>
      <trkpt lat="50.50378" lon="2.59649">
        <ele>55.211608</ele>
        <time>2022-06-05T11:33:14.611Z</time>
      </trkpt>
      <trkpt lat="50.50313" lon="2.59634">
        <ele>55.091495</ele>
        <time>2022-06-05T11:33:27.185Z</time>
      </trkpt>
      <trkpt lat="50.50259" lon="2.59624">
        <ele>54.191511</ele>
        <time>2022-06-05T11:33:36.274Z</time>
      </trkpt>
      <trkpt lat="50.50246" lon="2.59624">
        <ele>53.787197</ele>
        <time>2022-06-05T11:33:38.431Z</time>
      </trkpt>
      <trkpt lat="50.50174" lon="2.59728">
        <ele>50.881887</ele>
        <time>2022-06-05T11:33:52.504Z</time>
      </trkpt>
      <trkpt lat="50.50156" lon="2.59755">
        <ele>50.14919</ele>
        <time>2022-06-05T11:33:55.877Z</time>
      </trkpt>
      <trkpt lat="50.50147" lon="2.59774">
        <ele>49.709613</ele>
        <time>2022-06-05T11:33:57.896Z</time>
      </trkpt>
      <trkpt lat="50.50118" lon="2.59819">
        <ele>47.79303</ele>
        <time>2022-06-05T11:34:03.346Z</time>
      </trkpt>
      <trkpt lat="50.49975" lon="2.59918">
        <ele>40.860501</ele>
        <time>2022-06-05T11:34:24.251Z</time>
      </trkpt>
      <trkpt lat="50.49946" lon="2.59951">
        <ele>39.947094</ele>
        <time>2022-06-05T11:34:29.372Z</time>
      </trkpt>
      <trkpt lat="50.4994" lon="2.59979">
        <ele>39.455446</ele>
        <time>2022-06-05T11:34:32.158Z</time>
      </trkpt>
      <trkpt lat="50.49937" lon="2.60073">
        <ele>37.910271</ele>
        <time>2022-06-05T11:34:41.257Z</time>
      </trkpt>
      <trkpt lat="50.4993" lon="2.60114">
        <ele>37.211601</ele>
        <time>2022-06-05T11:34:45.533Z</time>
      </trkpt>
      <trkpt lat="50.49903" lon="2.60208">
        <ele>36.830417</ele>
        <time>2022-06-05T11:34:56.904Z</time>
      </trkpt>
      <trkpt lat="50.49881" lon="2.60332">
        <ele>37.10445</ele>
        <time>2022-06-05T11:35:14.358Z</time>
      </trkpt>
      <trkpt lat="50.49821" lon="2.60571">
        <ele>39.041969</ele>
        <time>2022-06-05T11:35:57.500Z</time>
      </trkpt>
      <trkpt lat="50.498" lon="2.60611">
        <ele>39.560592</ele>
        <time>2022-06-05T11:36:07.273Z</time>
      </trkpt>
      <trkpt lat="50.49782" lon="2.60669">
        <ele>40.208502</ele>
        <time>2022-06-05T11:36:19.140Z</time>
      </trkpt>
      <trkpt lat="50.49755" lon="2.60796">
        <ele>41.434524</ele>
        <time>2022-06-05T11:36:42.518Z</time>
      </trkpt>
      <trkpt lat="50.49748" lon="2.60821">
        <ele>41.68228</ele>
        <time>2022-06-05T11:36:46.878Z</time>
      </trkpt>
      <trkpt lat="50.49735" lon="2.60845">
        <ele>41.968777</ele>
        <time>2022-06-05T11:36:51.890Z</time>
      </trkpt>
      <trkpt lat="50.49731" lon="2.60849">
        <ele>42.038811</ele>
        <time>2022-06-05T11:36:53.143Z</time>
      </trkpt>
      <trkpt lat="50.49724" lon="2.60873">
        <ele>42.279281</ele>
        <time>2022-06-05T11:36:57.391Z</time>
      </trkpt>
      <trkpt lat="50.49733" lon="2.60895">
        <ele>42.515888</ele>
        <time>2022-06-05T11:37:01.667Z</time>
      </trkpt>
      <trkpt lat="50.49737" lon="2.60951">
        <ele>42.847965</ele>
        <time>2022-06-05T11:37:10.466Z</time>
      </trkpt>
      <trkpt lat="50.49736" lon="2.60964">
        <ele>42.8931</ele>
        <time>2022-06-05T11:37:12.338Z</time>
      </trkpt>
      <trkpt lat="50.49728" lon="2.61061">
        <ele>43.238825</ele>
        <time>2022-06-05T11:37:25.872Z</time>
      </trkpt>
      <trkpt lat="50.49698" lon="2.61054">
        <ele>43.403992</ele>
        <time>2022-06-05T11:37:32.777Z</time>
      </trkpt>
      <trkpt lat="50.49666" lon="2.61036">
        <ele>43.593435</ele>
        <time>2022-06-05T11:37:40.562Z</time>
      </trkpt>
      <trkpt lat="50.49667" lon="2.61008">
        <ele>43.691593</ele>
        <time>2022-06-05T11:37:44.510Z</time>
      </trkpt>
      <trkpt lat="50.49694" lon="2.60899">
        <ele>43.958935</ele>
        <time>2022-06-05T11:38:01.552Z</time>
      </trkpt>
      <trkpt lat="50.49692" lon="2.60881">
        <ele>43.997373</ele>
        <time>2022-06-05T11:38:04.274Z</time>
      </trkpt>
      <trkpt lat="50.49687" lon="2.60874">
        <ele>44.021476</ele>
        <time>2022-06-05T11:38:05.969Z</time>
      </trkpt>
      <trkpt lat="50.493" lon="2.60572">
        <ele>45.302174</ele>
        <time>2022-06-05T11:39:45.703Z</time>
      </trkpt>
      <trkpt lat="50.4926" lon="2.60553">
        <ele>45.228362</ele>
        <time>2022-06-05T11:39:54.466Z</time>
      </trkpt>
      <trkpt lat="50.49228" lon="2.60558">
        <ele>45.02322</ele>
        <time>2022-06-05T11:40:00.991Z</time>
      </trkpt>
      <trkpt lat="50.49178" lon="2.60596">
        <ele>44.664897</ele>
        <time>2022-06-05T11:40:12.119Z</time>
      </trkpt>
      <trkpt lat="50.49156" lon="2.60606">
        <ele>44.514228</ele>
        <time>2022-06-05T11:40:16.698Z</time>
      </trkpt>
      <trkpt lat="50.49134" lon="2.60603">
        <ele>44.373997</ele>
        <time>2022-06-05T11:40:20.874Z</time>
      </trkpt>
      <trkpt lat="50.49101" lon="2.60578">
        <ele>44.058826</ele>
        <time>2022-06-05T11:40:27.797Z</time>
      </trkpt>
      <trkpt lat="50.49096" lon="2.60579">
        <ele>43.979935</ele>
        <time>2022-06-05T11:40:28.781Z</time>
      </trkpt>
      <trkpt lat="50.49055" lon="2.60706">
        <ele>42.638018</ele>
        <time>2022-06-05T11:40:45.011Z</time>
      </trkpt>
      <trkpt lat="50.48979" lon="2.60886">
        <ele>41.011915</ele>
        <time>2022-06-05T11:41:10.176Z</time>
      </trkpt>
      <trkpt lat="50.48931" lon="2.61062">
        <ele>40.119238</ele>
        <time>2022-06-05T11:41:33.698Z</time>
      </trkpt>
      <trkpt lat="50.48896" lon="2.61247">
        <ele>42.179464</ele>
        <time>2022-06-05T11:42:07.628Z</time>
      </trkpt>
      <trkpt lat="50.48867" lon="2.61446">
        <ele>46.000191</ele>
        <time>2022-06-05T11:42:58.260Z</time>
      </trkpt>
      <trkpt lat="50.48855" lon="2.61505">
        <ele>47.509856</ele>
        <time>2022-06-05T11:43:14.318Z</time>
      </trkpt>
      <trkpt lat="50.48844" lon="2.61528">
        <ele>48.209571</ele>
        <time>2022-06-05T11:43:23.008Z</time>
      </trkpt>
      <trkpt lat="50.48804" lon="2.61538">
        <ele>49.756767</ele>
        <time>2022-06-05T11:43:38.615Z</time>
      </trkpt>
      <trkpt lat="50.4872" lon="2.61588">
        <ele>53.513975</ele>
        <time>2022-06-05T11:44:15.820Z</time>
      </trkpt>
      <trkpt lat="50.48699" lon="2.61605">
        <ele>54.511146</ele>
        <time>2022-06-05T11:44:25.897Z</time>
      </trkpt>
      <trkpt lat="50.48651" lon="2.61681">
        <ele>57.341538</ele>
        <time>2022-06-05T11:44:51.782Z</time>
      </trkpt>
      <trkpt lat="50.48612" lon="2.61696">
        <ele>59.171383</ele>
        <time>2022-06-05T11:45:10.722Z</time>
      </trkpt>
      <trkpt lat="50.48543" lon="2.61688">
        <ele>62.307919</ele>
        <time>2022-06-05T11:45:43.038Z</time>
      </trkpt>
      <trkpt lat="50.48509" lon="2.61715">
        <ele>63.987074</ele>
        <time>2022-06-05T11:45:59.562Z</time>
      </trkpt>
      <trkpt lat="50.48486" lon="2.61733">
        <ele>65.161134</ele>
        <time>2022-06-05T11:46:10.270Z</time>
      </trkpt>
      <trkpt lat="50.48451" lon="2.61779">
        <ele>65.875087</ele>
        <time>2022-06-05T11:46:25.868Z</time>
      </trkpt>
      <trkpt lat="50.48439" lon="2.61825">
        <ele>66.133576</ele>
        <time>2022-06-05T11:46:36.031Z</time>
      </trkpt>
      <trkpt lat="50.48413" lon="2.61865">
        <ele>66.424094</ele>
        <time>2022-06-05T11:46:46.476Z</time>
      </trkpt>
      <trkpt lat="50.48407" lon="2.6187">
        <ele>66.477919</ele>
        <time>2022-06-05T11:46:47.898Z</time>
      </trkpt>
      <trkpt lat="50.48353" lon="2.61905">
        <ele>66.953738</ele>
        <time>2022-06-05T11:46:58.307Z</time>
      </trkpt>
      <trkpt lat="50.48345" lon="2.61923">
        <ele>66.917637</ele>
        <time>2022-06-05T11:47:00.496Z</time>
      </trkpt>
      <trkpt lat="50.48318" lon="2.62024">
        <ele>64.770676</ele>
        <time>2022-06-05T11:47:11.301Z</time>
      </trkpt>
      <trkpt lat="50.48272" lon="2.62218">
        <ele>60.854023</ele>
        <time>2022-06-05T11:47:31.112Z</time>
      </trkpt>
      <trkpt lat="50.48254" lon="2.62332">
        <ele>58.990659</ele>
        <time>2022-06-05T11:47:42.535Z</time>
      </trkpt>
      <trkpt lat="50.48249" lon="2.62339">
        <ele>58.81159</ele>
        <time>2022-06-05T11:47:43.664Z</time>
      </trkpt>
      <trkpt lat="50.48255" lon="2.62378">
        <ele>58.182748</ele>
        <time>2022-06-05T11:47:47.587Z</time>
      </trkpt>
      <trkpt lat="50.48251" lon="2.62464">
        <ele>56.937262</ele>
        <time>2022-06-05T11:47:56.611Z</time>
      </trkpt>
      <trkpt lat="50.48254" lon="2.6249">
        <ele>56.802996</ele>
        <time>2022-06-05T11:47:59.534Z</time>
      </trkpt>
      <trkpt lat="50.48236" lon="2.62519">
        <ele>56.59404</ele>
        <time>2022-06-05T11:48:04.143Z</time>
      </trkpt>
      <trkpt lat="50.48229" lon="2.62523">
        <ele>56.536463</ele>
        <time>2022-06-05T11:48:05.548Z</time>
      </trkpt>
      <trkpt lat="50.48206" lon="2.62505">
        <ele>56.332272</ele>
        <time>2022-06-05T11:48:09.849Z</time>
      </trkpt>
      <trkpt lat="50.48198" lon="2.62505">
        <ele>56.268625</ele>
        <time>2022-06-05T11:48:11.282Z</time>
      </trkpt>
      <trkpt lat="50.48143" lon="2.62505">
        <ele>55.829469</ele>
        <time>2022-06-05T11:48:22.077Z</time>
      </trkpt>
      <trkpt lat="50.4814" lon="2.62579">
        <ele>55.541977</ele>
        <time>2022-06-05T11:48:30.791Z</time>
      </trkpt>
      <trkpt lat="50.48146" lon="2.62656">
        <ele>55.466443</ele>
        <time>2022-06-05T11:48:40.378Z</time>
      </trkpt>
      <trkpt lat="50.48127" lon="2.62664">
        <ele>55.43597</ele>
        <time>2022-06-05T11:48:48.987Z</time>
      </trkpt>
      <trkpt lat="50.48104" lon="2.62673">
        <ele>55.399552</ele>
        <time>2022-06-05T11:48:59.125Z</time>
      </trkpt>
      <trkpt lat="50.48018" lon="2.62684">
        <ele>55.32587</ele>
        <time>2022-06-05T11:49:36.027Z</time>
      </trkpt>
      <trkpt lat="50.47967" lon="2.62684">
        <ele>55.487739</ele>
        <time>2022-06-05T11:49:57.837Z</time>
      </trkpt>
      <trkpt lat="50.47949" lon="2.6268">
        <ele>55.545438</ele>
        <time>2022-06-05T11:50:05.612Z</time>
      </trkpt>
      <trkpt lat="50.47922" lon="2.6267">
        <ele>55.633482</ele>
        <time>2022-06-05T11:50:17.477Z</time>
      </trkpt>
      <trkpt lat="50.47868" lon="2.62646">
        <ele>55.811597</ele>
        <time>2022-06-05T11:50:41.477Z</time>
      </trkpt>
      <trkpt lat="50.47821" lon="2.62628">
        <ele>55.972207</ele>
        <time>2022-06-05T11:51:02.407Z</time>
      </trkpt>
      <trkpt lat="50.47773" lon="2.62609">
        <ele>56.135005</ele>
        <time>2022-06-05T11:51:23.336Z</time>
      </trkpt>
      <trkpt lat="50.47748" lon="2.62605">
        <ele>56.217725</ele>
        <time>2022-06-05T11:51:33.983Z</time>
      </trkpt>
      <trkpt lat="50.47736" lon="2.62738">
        <ele>56.455548</ele>
        <time>2022-06-05T11:51:52.284Z</time>
      </trkpt>
      <trkpt lat="50.47731" lon="2.62844">
        <ele>56.456165</ele>
        <time>2022-06-05T11:52:05.868Z</time>
      </trkpt>
      <trkpt lat="50.47729" lon="2.63079">
        <ele>56.753183</ele>
        <time>2022-06-05T11:52:35.854Z</time>
      </trkpt>
      <trkpt lat="50.47718" lon="2.63174">
        <ele>57.104502</ele>
        <time>2022-06-05T11:52:49.875Z</time>
      </trkpt>
      <trkpt lat="50.47572" lon="2.63096">
        <ele>58.519336</ele>
        <time>2022-06-05T11:53:30.037Z</time>
      </trkpt>
      <trkpt lat="50.47491" lon="2.63069">
        <ele>59.491365</ele>
        <time>2022-06-05T11:53:52.307Z</time>
      </trkpt>
      <trkpt lat="50.47401" lon="2.63087">
        <ele>60.184288</ele>
        <time>2022-06-05T11:54:14.760Z</time>
      </trkpt>
      <trkpt lat="50.47317" lon="2.63039">
        <ele>60.824259</ele>
        <time>2022-06-05T11:54:35.111Z</time>
      </trkpt>
      <trkpt lat="50.47229" lon="2.63004">
        <ele>61.118785</ele>
        <time>2022-06-05T11:54:54.793Z</time>
      </trkpt>
      <trkpt lat="50.47083" lon="2.62956">
        <ele>61.505837</ele>
        <time>2022-06-05T11:55:26.782Z</time>
      </trkpt>
      <trkpt lat="50.47038" lon="2.62951">
        <ele>61.598955</ele>
        <time>2022-06-05T11:55:36.271Z</time>
      </trkpt>
      <trkpt lat="50.47001" lon="2.62956">
        <ele>61.676543</ele>
        <time>2022-06-05T11:55:44.147Z</time>
      </trkpt>
      <trkpt lat="50.46826" lon="2.62973">
        <ele>61.961651</ele>
        <time>2022-06-05T11:56:21.013Z</time>
      </trkpt>
      <trkpt lat="50.46694" lon="2.6297">
        <ele>62.195331</ele>
        <time>2022-06-05T11:56:48.532Z</time>
      </trkpt>
      <trkpt lat="50.46669" lon="2.63001">
        <ele>62.258848</ele>
        <time>2022-06-05T11:56:55.405Z</time>
      </trkpt>
      <trkpt lat="50.46529" lon="2.63005">
        <ele>62.552271</ele>
        <time>2022-06-05T11:57:25.608Z</time>
      </trkpt>
      <trkpt lat="50.46498" lon="2.62975">
        <ele>62.633137</ele>
        <time>2022-06-05T11:57:33.047Z</time>
      </trkpt>
      <trkpt lat="50.46452" lon="2.62943">
        <ele>62.745209</ele>
        <time>2022-06-05T11:57:43.221Z</time>
      </trkpt>
      <trkpt lat="50.464" lon="2.63237">
        <ele>62.733269</ele>
        <time>2022-06-05T11:58:45.305Z</time>
      </trkpt>
      <trkpt lat="50.46323" lon="2.63486">
        <ele>61.443335</ele>
        <time>2022-06-05T11:59:38.445Z</time>
      </trkpt>
      <trkpt lat="50.46286" lon="2.63668">
        <ele>58.827203</ele>
        <time>2022-06-05T12:00:11.867Z</time>
      </trkpt>
      <trkpt lat="50.46262" lon="2.63839">
        <ele>56.137447</ele>
        <time>2022-06-05T12:00:40.695Z</time>
      </trkpt>
      <trkpt lat="50.46268" lon="2.64116">
        <ele>52.323003</ele>
        <time>2022-06-05T12:01:27.560Z</time>
      </trkpt>
      <trkpt lat="50.46259" lon="2.64188">
        <ele>52.065114</ele>
        <time>2022-06-05T12:01:41.340Z</time>
      </trkpt>
      <trkpt lat="50.46254" lon="2.6426">
        <ele>51.811723</ele>
        <time>2022-06-05T12:01:55.660Z</time>
      </trkpt>
      <trkpt lat="50.46099" lon="2.64073">
        <ele>53.487359</ele>
        <time>2022-06-05T12:03:09.487Z</time>
      </trkpt>
      <trkpt lat="50.45994" lon="2.6392">
        <ele>55.798668</ele>
        <time>2022-06-05T12:04:07.519Z</time>
      </trkpt>
      <trkpt lat="50.4591" lon="2.63755">
        <ele>57.882623</ele>
        <time>2022-06-05T12:05:01.594Z</time>
      </trkpt>
      <trkpt lat="50.45785" lon="2.63606">
        <ele>59.941428</ele>
        <time>2022-06-05T12:06:01.060Z</time>
      </trkpt>
      <trkpt lat="50.45668" lon="2.63482">
        <ele>61.499933</ele>
        <time>2022-06-05T12:06:53.472Z</time>
      </trkpt>
      <trkpt lat="50.45604" lon="2.63432">
        <ele>62.422248</ele>
        <time>2022-06-05T12:07:19.771Z</time>
      </trkpt>
      <trkpt lat="50.45543" lon="2.63371">
        <ele>63.373328</ele>
        <time>2022-06-05T12:07:48.445Z</time>
      </trkpt>
      <trkpt lat="50.45494" lon="2.63334">
        <ele>64.075297</ele>
        <time>2022-06-05T12:08:09.971Z</time>
      </trkpt>
      <trkpt lat="50.45464" lon="2.63312">
        <ele>64.51007</ele>
        <time>2022-06-05T12:08:22.549Z</time>
      </trkpt>
      <trkpt lat="50.4539" lon="2.63273">
        <ele>65.52368</ele>
        <time>2022-06-05T12:08:52.042Z</time>
      </trkpt>
      <trkpt lat="50.45386" lon="2.63268">
        <ele>65.585583</ele>
        <time>2022-06-05T12:08:53.852Z</time>
      </trkpt>
      <trkpt lat="50.45441" lon="2.63172">
        <ele>66.78624</ele>
        <time>2022-06-05T12:09:14.349Z</time>
      </trkpt>
      <trkpt lat="50.45422" lon="2.63137">
        <ele>67.269921</ele>
        <time>2022-06-05T12:09:25.965Z</time>
      </trkpt>
      <trkpt lat="50.45405" lon="2.63131">
        <ele>67.539131</ele>
        <time>2022-06-05T12:09:32.175Z</time>
      </trkpt>
      <trkpt lat="50.45307" lon="2.63186">
        <ele>69.295001</ele>
        <time>2022-06-05T12:10:15.425Z</time>
      </trkpt>
      <trkpt lat="50.45208" lon="2.63217">
        <ele>71.351124</ele>
        <time>2022-06-05T12:10:59.279Z</time>
      </trkpt>
      <trkpt lat="50.45168" lon="2.63256">
        <ele>72.29685</ele>
        <time>2022-06-05T12:11:18.776Z</time>
      </trkpt>
      <trkpt lat="50.45123" lon="2.63332">
        <ele>73.001899</ele>
        <time>2022-06-05T12:11:45.150Z</time>
      </trkpt>
      <trkpt lat="50.45121" lon="2.63337">
        <ele>73.026987</ele>
        <time>2022-06-05T12:11:46.729Z</time>
      </trkpt>
      <trkpt lat="50.45039" lon="2.63521">
        <ele>73.850769</ele>
        <time>2022-06-05T12:12:33.767Z</time>
      </trkpt>
      <trkpt lat="50.44969" lon="2.63664">
        <ele>73.959706</ele>
        <time>2022-06-05T12:13:09.825Z</time>
      </trkpt>
      <trkpt lat="50.44949" lon="2.63705">
        <ele>73.991353</ele>
        <time>2022-06-05T12:13:20.500Z</time>
      </trkpt>
      <trkpt lat="50.44897" lon="2.63777">
        <ele>74.371777</ele>
        <time>2022-06-05T12:13:43.416Z</time>
      </trkpt>
      <trkpt lat="50.44839" lon="2.63828">
        <ele>74.856596</ele>
        <time>2022-06-05T12:14:06.978Z</time>
      </trkpt>
      <trkpt lat="50.44775" lon="2.63901">
        <ele>75.569576</ele>
        <time>2022-06-05T12:14:36.375Z</time>
      </trkpt>
      <trkpt lat="50.44723" lon="2.63991">
        <ele>76.838629</ele>
        <time>2022-06-05T12:15:07.263Z</time>
      </trkpt>
      <trkpt lat="50.44714" lon="2.63988">
        <ele>76.995199</ele>
        <time>2022-06-05T12:15:11.198Z</time>
      </trkpt>
      <trkpt lat="50.44707" lon="2.63993">
        <ele>77.117526</ele>
        <time>2022-06-05T12:15:13.989Z</time>
      </trkpt>
      <trkpt lat="50.44686" lon="2.64042">
        <ele>77.728764</ele>
        <time>2022-06-05T12:15:29.262Z</time>
      </trkpt>
      <trkpt lat="50.44677" lon="2.64053">
        <ele>77.92063</ele>
        <time>2022-06-05T12:15:34.497Z</time>
      </trkpt>
      <trkpt lat="50.44675" lon="2.64056">
        <ele>77.969154</ele>
        <time>2022-06-05T12:15:35.688Z</time>
      </trkpt>
      <trkpt lat="50.44677" lon="2.64021">
        <ele>78.335038</ele>
        <time>2022-06-05T12:15:41.766Z</time>
      </trkpt>
      <trkpt lat="50.44664" lon="2.63959">
        <ele>79.015191</ele>
        <time>2022-06-05T12:15:53.924Z</time>
      </trkpt>
      <trkpt lat="50.44648" lon="2.63918">
        <ele>79.515988</ele>
        <time>2022-06-05T12:16:02.516Z</time>
      </trkpt>
      <trkpt lat="50.44566" lon="2.63837">
        <ele>81.097752</ele>
        <time>2022-06-05T12:16:28.536Z</time>
      </trkpt>
      <trkpt lat="50.44535" lon="2.63799">
        <ele>81.62102</ele>
        <time>2022-06-05T12:16:38.304Z</time>
      </trkpt>
      <trkpt lat="50.44522" lon="2.6377">
        <ele>81.911173</ele>
        <time>2022-06-05T12:16:44.185Z</time>
      </trkpt>
      <trkpt lat="50.44514" lon="2.63733">
        <ele>82.230457</ele>
        <time>2022-06-05T12:16:50.224Z</time>
      </trkpt>
      <trkpt lat="50.44513" lon="2.63696">
        <ele>82.535979</ele>
        <time>2022-06-05T12:16:56.141Z</time>
      </trkpt>
      <trkpt lat="50.44522" lon="2.63669">
        <ele>82.789208</ele>
        <time>2022-06-05T12:17:01.290Z</time>
      </trkpt>
      <trkpt lat="50.44522" lon="2.63651">
        <ele>82.932843</ele>
        <time>2022-06-05T12:17:04.090Z</time>
      </trkpt>
      <trkpt lat="50.4452" lon="2.63643">
        <ele>83.003647</ele>
        <time>2022-06-05T12:17:05.386Z</time>
      </trkpt>
      <trkpt lat="50.44511" lon="2.63626">
        <ele>83.182374</ele>
        <time>2022-06-05T12:17:09.061Z</time>
      </trkpt>
      <trkpt lat="50.44501" lon="2.63618">
        <ele>83.333153</ele>
        <time>2022-06-05T12:17:12.234Z</time>
      </trkpt>
      <trkpt lat="50.44496" lon="2.63617">
        <ele>83.394486</ele>
        <time>2022-06-05T12:17:13.384Z</time>
      </trkpt>
      <trkpt lat="50.44467" lon="2.63573">
        <ele>83.902612</ele>
        <time>2022-06-05T12:17:24.251Z</time>
      </trkpt>
      <trkpt lat="50.44457" lon="2.63554">
        <ele>84.09134</ele>
        <time>2022-06-05T12:17:27.968Z</time>
      </trkpt>
      <trkpt lat="50.44417" lon="2.63496">
        <ele>84.76167</ele>
        <time>2022-06-05T12:17:42.001Z</time>
      </trkpt>
      <trkpt lat="50.44393" lon="2.63462">
        <ele>85.162882</ele>
        <time>2022-06-05T12:17:50.341Z</time>
      </trkpt>
      <trkpt lat="50.44355" lon="2.63407">
        <ele>85.767021</ele>
        <time>2022-06-05T12:18:03.753Z</time>
      </trkpt>
      <trkpt lat="50.44352" lon="2.63421">
        <ele>85.822172</ele>
        <time>2022-06-05T12:18:05.690Z</time>
      </trkpt>
      <trkpt lat="50.44368" lon="2.63471">
        <ele>86.039064</ele>
        <time>2022-06-05T12:18:14.523Z</time>
      </trkpt>
      <trkpt lat="50.4436" lon="2.63526">
        <ele>86.255494</ele>
        <time>2022-06-05T12:18:23.019Z</time>
      </trkpt>
      <trkpt lat="50.4436" lon="2.63568">
        <ele>86.420116</ele>
        <time>2022-06-05T12:18:29.516Z</time>
      </trkpt>
      <trkpt lat="50.44376" lon="2.63612">
        <ele>86.613561</ele>
        <time>2022-06-05T12:18:36.402Z</time>
      </trkpt>
      <trkpt lat="50.44376" lon="2.63621">
        <ele>86.647064</ele>
        <time>2022-06-05T12:18:37.576Z</time>
      </trkpt>
      <trkpt lat="50.44367" lon="2.63624">
        <ele>86.701439</ele>
        <time>2022-06-05T12:18:39.279Z</time>
      </trkpt>
      <trkpt lat="50.44303" lon="2.63558">
        <ele>86.930354</ele>
        <time>2022-06-05T12:18:56.250Z</time>
      </trkpt>
      <trkpt lat="50.44289" lon="2.63554">
        <ele>86.95728</ele>
        <time>2022-06-05T12:18:59.332Z</time>
      </trkpt>
      <trkpt lat="50.44283" lon="2.63559">
        <ele>86.969866</ele>
        <time>2022-06-05T12:19:00.691Z</time>
      </trkpt>
      <trkpt lat="50.44246" lon="2.63655">
        <ele>87.106281</ele>
        <time>2022-06-05T12:19:15.794Z</time>
      </trkpt>
      <trkpt lat="50.44223" lon="2.63702">
        <ele>87.218029</ele>
        <time>2022-06-05T12:19:23.645Z</time>
      </trkpt>
      <trkpt lat="50.44206" lon="2.63715">
        <ele>87.352387</ele>
        <time>2022-06-05T12:19:27.472Z</time>
      </trkpt>
      <trkpt lat="50.44185" lon="2.63742">
        <ele>87.543296</ele>
        <time>2022-06-05T12:19:32.538Z</time>
      </trkpt>
      <trkpt lat="50.44173" lon="2.63768">
        <ele>87.688183</ele>
        <time>2022-06-05T12:19:36.961Z</time>
      </trkpt>
      <trkpt lat="50.44146" lon="2.63867">
        <ele>88.174539</ele>
        <time>2022-06-05T12:19:54.201Z</time>
      </trkpt>
      <trkpt lat="50.44142" lon="2.63882">
        <ele>88.247674</ele>
        <time>2022-06-05T12:19:56.788Z</time>
      </trkpt>
      <trkpt lat="50.44118" lon="2.63949">
        <ele>89.147718</ele>
        <time>2022-06-05T12:20:10.047Z</time>
      </trkpt>
      <trkpt lat="50.44075" lon="2.63926">
        <ele>90.625933</ele>
        <time>2022-06-05T12:20:41.840Z</time>
      </trkpt>
      <trkpt lat="50.44014" lon="2.63915">
        <ele>92.607736</ele>
        <time>2022-06-05T12:21:24.456Z</time>
      </trkpt>
      <trkpt lat="50.43895" lon="2.63834">
        <ele>99.439047</ele>
        <time>2022-06-05T12:22:54.609Z</time>
      </trkpt>
      <trkpt lat="50.43844" lon="2.63752">
        <ele>104.288451</ele>
        <time>2022-06-05T12:23:45.768Z</time>
      </trkpt>
      <trkpt lat="50.43781" lon="2.63665">
        <ele>110.024725</ele>
        <time>2022-06-05T12:24:43.837Z</time>
      </trkpt>
      <trkpt lat="50.43737" lon="2.63638">
        <ele>113.380447</ele>
        <time>2022-06-05T12:25:17.086Z</time>
      </trkpt>
      <trkpt lat="50.43662" lon="2.63545">
        <ele>119.38282</ele>
        <time>2022-06-05T12:26:23.715Z</time>
      </trkpt>
      <trkpt lat="50.4363" lon="2.63514">
        <ele>120.581243</ele>
        <time>2022-06-05T12:26:49.787Z</time>
      </trkpt>
      <trkpt lat="50.43552" lon="2.63459">
        <ele>123.296011</ele>
        <time>2022-06-05T12:27:48.919Z</time>
      </trkpt>
      <trkpt lat="50.43552" lon="2.63459">
        <ele>123.318735</ele>
        <time>2022-06-05T12:27:49.382Z</time>
      </trkpt>
      <trkpt lat="50.43463" lon="2.6336">
        <ele>126.713969</ele>
        <time>2022-06-05T12:29:04.953Z</time>
      </trkpt>
      <trkpt lat="50.43431" lon="2.63361">
        <ele>127.713926</ele>
        <time>2022-06-05T12:29:27.497Z</time>
      </trkpt>
      <trkpt lat="50.43426" lon="2.63364">
        <ele>127.874161</ele>
        <time>2022-06-05T12:29:30.602Z</time>
      </trkpt>
      <trkpt lat="50.43385" lon="2.63342">
        <ele>129.200431</ele>
        <time>2022-06-05T12:29:52.501Z</time>
      </trkpt>
      <trkpt lat="50.43366" lon="2.63325">
        <ele>129.876757</ele>
        <time>2022-06-05T12:30:06.710Z</time>
      </trkpt>
      <trkpt lat="50.43326" lon="2.63257">
        <ele>133.251929</ele>
        <time>2022-06-05T12:30:45.049Z</time>
      </trkpt>
      <trkpt lat="50.43302" lon="2.63231">
        <ele>135.04007</ele>
        <time>2022-06-05T12:31:04.710Z</time>
      </trkpt>
      <trkpt lat="50.43263" lon="2.63204">
        <ele>137.597113</ele>
        <time>2022-06-05T12:31:31.329Z</time>
      </trkpt>
      <trkpt lat="50.43252" lon="2.63196">
        <ele>138.34124</ele>
        <time>2022-06-05T12:31:39.734Z</time>
      </trkpt>
      <trkpt lat="50.43245" lon="2.63206">
        <ele>138.918358</ele>
        <time>2022-06-05T12:31:45.490Z</time>
      </trkpt>
      <trkpt lat="50.43217" lon="2.6332">
        <ele>142.721538</ele>
        <time>2022-06-05T12:32:30.465Z</time>
      </trkpt>
      <trkpt lat="50.43194" lon="2.63373">
        <ele>144.320387</ele>
        <time>2022-06-05T12:32:51.726Z</time>
      </trkpt>
      <trkpt lat="50.43186" lon="2.6343">
        <ele>145.797767</ele>
        <time>2022-06-05T12:33:10.353Z</time>
      </trkpt>
      <trkpt lat="50.43172" lon="2.63485">
        <ele>147.270524</ele>
        <time>2022-06-05T12:33:26.824Z</time>
      </trkpt>
      <trkpt lat="50.43159" lon="2.63514">
        <ele>148.2282</ele>
        <time>2022-06-05T12:33:34.718Z</time>
      </trkpt>
      <trkpt lat="50.43102" lon="2.63594">
        <ele>152.726353</ele>
        <time>2022-06-05T12:34:16.235Z</time>
      </trkpt>
      <trkpt lat="50.43102" lon="2.63594">
        <ele>152.745417</ele>
        <time>2022-06-05T12:34:16.709Z</time>
      </trkpt>
      <trkpt lat="50.43095" lon="2.63607">
        <ele>153.383584</ele>
        <time>2022-06-05T12:34:21.349Z</time>
      </trkpt>
      <trkpt lat="50.43071" lon="2.636">
        <ele>154.820249</ele>
        <time>2022-06-05T12:34:31.794Z</time>
      </trkpt>
      <trkpt lat="50.43044" lon="2.63599">
        <ele>156.409744</ele>
        <time>2022-06-05T12:34:43.376Z</time>
      </trkpt>
      <trkpt lat="50.42973" lon="2.63539">
        <ele>161.494825</ele>
        <time>2022-06-05T12:35:17.954Z</time>
      </trkpt>
      <trkpt lat="50.42937" lon="2.63519">
        <ele>164.046807</ele>
        <time>2022-06-05T12:35:34.342Z</time>
      </trkpt>
      <trkpt lat="50.42916" lon="2.63512">
        <ele>165.481461</ele>
        <time>2022-06-05T12:35:43.539Z</time>
      </trkpt>
      <trkpt lat="50.42901" lon="2.6351">
        <ele>166.487473</ele>
        <time>2022-06-05T12:35:49.988Z</time>
      </trkpt>
      <trkpt lat="50.42877" lon="2.63515">
        <ele>168.10538</ele>
        <time>2022-06-05T12:36:00.355Z</time>
      </trkpt>
      <trkpt lat="50.42818" lon="2.63502">
        <ele>171.144167</ele>
        <time>2022-06-05T12:36:26.088Z</time>
      </trkpt>
      <trkpt lat="50.42758" lon="2.63488">
        <ele>172.456449</ele>
        <time>2022-06-05T12:36:51.807Z</time>
      </trkpt>
      <trkpt lat="50.42717" lon="2.63446">
        <ele>173.525123</ele>
        <time>2022-06-05T12:37:12.747Z</time>
      </trkpt>
      <trkpt lat="50.42687" lon="2.63431">
        <ele>174.212391</ele>
        <time>2022-06-05T12:37:26.213Z</time>
      </trkpt>
      <trkpt lat="50.42687" lon="2.63435">
        <ele>174.263629</ele>
        <time>2022-06-05T12:37:27.221Z</time>
      </trkpt>
      <trkpt lat="50.4258" lon="2.634">
        <ele>174.672314</ele>
        <time>2022-06-05T12:37:49.197Z</time>
      </trkpt>
      <trkpt lat="50.42611" lon="2.63256">
        <ele>174.729687</ele>
        <time>2022-06-05T12:38:07.224Z</time>
      </trkpt>
      <trkpt lat="50.42619" lon="2.63075">
        <ele>174.589863</ele>
        <time>2022-06-05T12:38:28.942Z</time>
      </trkpt>
      <trkpt lat="50.42667" lon="2.62623">
        <ele>174.358856</ele>
        <time>2022-06-05T12:39:23.872Z</time>
      </trkpt>
      <trkpt lat="50.42676" lon="2.62459">
        <ele>174.488749</ele>
        <time>2022-06-05T12:39:44.527Z</time>
      </trkpt>
      <trkpt lat="50.42689" lon="2.62398">
        <ele>174.744482</ele>
        <time>2022-06-05T12:39:53.314Z</time>
      </trkpt>
      <trkpt lat="50.42782" lon="2.62131">
        <ele>176.795461</ele>
        <time>2022-06-05T12:40:41.010Z</time>
      </trkpt>
      <trkpt lat="50.42892" lon="2.61896">
        <ele>179.732371</ele>
        <time>2022-06-05T12:41:31.957Z</time>
      </trkpt>
      <trkpt lat="50.43039" lon="2.61663">
        <ele>183.688236</ele>
        <time>2022-06-05T12:42:32.348Z</time>
      </trkpt>
      <trkpt lat="50.43079" lon="2.61588">
        <ele>184.903247</ele>
        <time>2022-06-05T12:42:52.042Z</time>
      </trkpt>
      <trkpt lat="50.43075" lon="2.61569">
        <ele>185.153716</ele>
        <time>2022-06-05T12:42:55.657Z</time>
      </trkpt>
      <trkpt lat="50.43085" lon="2.61558">
        <ele>185.398625</ele>
        <time>2022-06-05T12:42:59.419Z</time>
      </trkpt>
      <trkpt lat="50.43109" lon="2.61474">
        <ele>186.417152</ele>
        <time>2022-06-05T12:43:14.846Z</time>
      </trkpt>
      <trkpt lat="50.43126" lon="2.61416">
        <ele>187.094312</ele>
        <time>2022-06-05T12:43:25.745Z</time>
      </trkpt>
      <trkpt lat="50.43101" lon="2.6141">
        <ele>187.509864</ele>
        <time>2022-06-05T12:43:35.545Z</time>
      </trkpt>
      <trkpt lat="50.43074" lon="2.61419">
        <ele>187.961682</ele>
        <time>2022-06-05T12:43:46.424Z</time>
      </trkpt>
      <trkpt lat="50.43065" lon="2.61409">
        <ele>188.150886</ele>
        <time>2022-06-05T12:43:51.026Z</time>
      </trkpt>
      <trkpt lat="50.43039" lon="2.61369">
        <ele>188.764968</ele>
        <time>2022-06-05T12:44:06.006Z</time>
      </trkpt>
      <trkpt lat="50.43026" lon="2.61338">
        <ele>189.189742</ele>
        <time>2022-06-05T12:44:15.541Z</time>
      </trkpt>
      <trkpt lat="50.42993" lon="2.61302">
        <ele>189.929699</ele>
        <time>2022-06-05T12:44:32.494Z</time>
      </trkpt>
      <trkpt lat="50.42934" lon="2.61222">
        <ele>191.360159</ele>
        <time>2022-06-05T12:45:04.867Z</time>
      </trkpt>
      <trkpt lat="50.42929" lon="2.61168">
        <ele>191.993245</ele>
        <time>2022-06-05T12:45:19.086Z</time>
      </trkpt>
      <trkpt lat="50.42945" lon="2.61163">
        <ele>192.069178</ele>
        <time>2022-06-05T12:45:25.974Z</time>
      </trkpt>
      <trkpt lat="50.42923" lon="2.61154">
        <ele>192.141002</ele>
        <time>2022-06-05T12:45:34.613Z</time>
      </trkpt>
      <trkpt lat="50.42853" lon="2.61096">
        <ele>192.38774</ele>
        <time>2022-06-05T12:46:02.576Z</time>
      </trkpt>
      <trkpt lat="50.42746" lon="2.60934">
        <ele>190.801502</ele>
        <time>2022-06-05T12:46:45.970Z</time>
      </trkpt>
      <trkpt lat="50.43013" lon="2.60505">
        <ele>182.302277</ele>
        <time>2022-06-05T12:47:47.039Z</time>
      </trkpt>
      <trkpt lat="50.43046" lon="2.60452">
        <ele>181.073535</ele>
        <time>2022-06-05T12:47:54.146Z</time>
      </trkpt>
      <trkpt lat="50.43068" lon="2.60414">
        <ele>180.351281</ele>
        <time>2022-06-05T12:48:02.655Z</time>
      </trkpt>
      <trkpt lat="50.43404" lon="2.59866">
        <ele>177.201622</ele>
        <time>2022-06-05T12:50:25.801Z</time>
      </trkpt>
      <trkpt lat="50.43497" lon="2.59717">
        <ele>179.33752</ele>
        <time>2022-06-05T12:51:30.127Z</time>
      </trkpt>
      <trkpt lat="50.43565" lon="2.59608">
        <ele>181.457622</ele>
        <time>2022-06-05T12:52:12.671Z</time>
      </trkpt>
      <trkpt lat="50.43654" lon="2.59471">
        <ele>179.947576</ele>
        <time>2022-06-05T12:52:48.787Z</time>
      </trkpt>
      <trkpt lat="50.43734" lon="2.5938">
        <ele>178.335046</ele>
        <time>2022-06-05T12:53:14.593Z</time>
      </trkpt>
      <trkpt lat="50.43955" lon="2.59139">
        <ele>175.853218</ele>
        <time>2022-06-05T12:54:29.528Z</time>
      </trkpt>
      <trkpt lat="50.43715" lon="2.5892">
        <ele>186.678525</ele>
        <time>2022-06-05T12:57:11.939Z</time>
      </trkpt>
      <trkpt lat="50.43658" lon="2.58862">
        <ele>188.71986</ele>
        <time>2022-06-05T12:57:46.472Z</time>
      </trkpt>
      <trkpt lat="50.43558" lon="2.58772">
        <ele>189.534345</ele>
        <time>2022-06-05T12:58:23.048Z</time>
      </trkpt>
      <trkpt lat="50.43547" lon="2.58762">
        <ele>189.334576</ele>
        <time>2022-06-05T12:58:26.595Z</time>
      </trkpt>
      <trkpt lat="50.43533" lon="2.58762">
        <ele>189.114988</ele>
        <time>2022-06-05T12:58:30.505Z</time>
      </trkpt>
      <trkpt lat="50.43531" lon="2.58762">
        <ele>189.094746</ele>
        <time>2022-06-05T12:58:30.854Z</time>
      </trkpt>
      <trkpt lat="50.43607" lon="2.58616">
        <ele>186.977771</ele>
        <time>2022-06-05T12:59:02.805Z</time>
      </trkpt>
      <trkpt lat="50.43633" lon="2.58567">
        <ele>185.960857</ele>
        <time>2022-06-05T12:59:08.676Z</time>
      </trkpt>
      <trkpt lat="50.43642" lon="2.58539">
        <ele>185.464943</ele>
        <time>2022-06-05T12:59:11.519Z</time>
      </trkpt>
      <trkpt lat="50.43646" lon="2.58501">
        <ele>184.851523</ele>
        <time>2022-06-05T12:59:15.122Z</time>
      </trkpt>
      <trkpt lat="50.43644" lon="2.58447">
        <ele>183.988099</ele>
        <time>2022-06-05T12:59:20.316Z</time>
      </trkpt>
      <trkpt lat="50.43647" lon="2.58429">
        <ele>183.692436</ele>
        <time>2022-06-05T12:59:22.090Z</time>
      </trkpt>
      <trkpt lat="50.43659" lon="2.58407">
        <ele>183.228221</ele>
        <time>2022-06-05T12:59:24.869Z</time>
      </trkpt>
      <trkpt lat="50.43701" lon="2.58392">
        <ele>183.036977</ele>
        <time>2022-06-05T12:59:31.801Z</time>
      </trkpt>
      <trkpt lat="50.43706" lon="2.58384">
        <ele>183.019189</ele>
        <time>2022-06-05T12:59:33.074Z</time>
      </trkpt>
      <trkpt lat="50.43706" lon="2.58317">
        <ele>182.917548</ele>
        <time>2022-06-05T12:59:41.025Z</time>
      </trkpt>
      <trkpt lat="50.43704" lon="2.58292">
        <ele>182.878902</ele>
        <time>2022-06-05T12:59:43.848Z</time>
      </trkpt>
      <trkpt lat="50.43703" lon="2.58285">
        <ele>182.868036</ele>
        <time>2022-06-05T12:59:44.791Z</time>
      </trkpt>
      <trkpt lat="50.43703" lon="2.58274">
        <ele>182.851391</ele>
        <time>2022-06-05T12:59:46.258Z</time>
      </trkpt>
      <trkpt lat="50.43707" lon="2.58257">
        <ele>182.824467</ele>
        <time>2022-06-05T12:59:48.946Z</time>
      </trkpt>
      <trkpt lat="50.43719" lon="2.58238">
        <ele>182.783199</ele>
        <time>2022-06-05T12:59:52.164Z</time>
      </trkpt>
      <trkpt lat="50.43744" lon="2.582">
        <ele>182.711574</ele>
        <time>2022-06-05T13:00:00.480Z</time>
      </trkpt>
      <trkpt lat="50.43759" lon="2.58178">
        <ele>183.04489</ele>
        <time>2022-06-05T13:00:06.218Z</time>
      </trkpt>
      <trkpt lat="50.43778" lon="2.58149">
        <ele>183.468985</ele>
        <time>2022-06-05T13:00:13.527Z</time>
      </trkpt>
      <trkpt lat="50.43869" lon="2.5801">
        <ele>185.527269</ele>
        <time>2022-06-05T13:00:50.635Z</time>
      </trkpt>
      <trkpt lat="50.43877" lon="2.5798">
        <ele>185.491299</ele>
        <time>2022-06-05T13:00:56.579Z</time>
      </trkpt>
      <trkpt lat="50.43877" lon="2.5792">
        <ele>185.184562</ele>
        <time>2022-06-05T13:01:04.656Z</time>
      </trkpt>
      <trkpt lat="50.43883" lon="2.57895">
        <ele>185.046023</ele>
        <time>2022-06-05T13:01:07.624Z</time>
      </trkpt>
      <trkpt lat="50.43944" lon="2.57798">
        <ele>184.340095</ele>
        <time>2022-06-05T13:01:21.842Z</time>
      </trkpt>
      <trkpt lat="50.43951" lon="2.57768">
        <ele>184.17763</ele>
        <time>2022-06-05T13:01:24.788Z</time>
      </trkpt>
      <trkpt lat="50.43969" lon="2.57735">
        <ele>183.074357</ele>
        <time>2022-06-05T13:01:28.803Z</time>
      </trkpt>
      <trkpt lat="50.44019" lon="2.57662">
        <ele>180.119566</ele>
        <time>2022-06-05T13:01:38.504Z</time>
      </trkpt>
      <trkpt lat="50.44021" lon="2.5766">
        <ele>180.013899</ele>
        <time>2022-06-05T13:01:38.849Z</time>
      </trkpt>
      <trkpt lat="50.44084" lon="2.57567">
        <ele>176.220462</ele>
        <time>2022-06-05T13:01:50.266Z</time>
      </trkpt>
      <trkpt lat="50.44166" lon="2.57455">
        <ele>168.518686</ele>
        <time>2022-06-05T13:02:03.952Z</time>
      </trkpt>
      <trkpt lat="50.44172" lon="2.57443">
        <ele>167.804457</ele>
        <time>2022-06-05T13:02:05.096Z</time>
      </trkpt>
      <trkpt lat="50.44221" lon="2.5741">
        <ele>164.069181</ele>
        <time>2022-06-05T13:02:11.864Z</time>
      </trkpt>
      <trkpt lat="50.44298" lon="2.5739">
        <ele>163.669864</ele>
        <time>2022-06-05T13:02:21.909Z</time>
      </trkpt>
      <trkpt lat="50.44321" lon="2.57387">
        <ele>163.669864</ele>
        <time>2022-06-05T13:02:24.694Z</time>
      </trkpt>
      <trkpt lat="50.4432" lon="2.57386">
        <ele>163.669864</ele>
        <time>2022-06-05T13:02:26.348Z</time>
      </trkpt>
    </trkseg>
  </trk>
</gpx>